<?xml version="1.0" encoding="UTF-8" standalone="no" ?>
<gpx xmlns="http://www.topografix.com/GPX/1/1" xmlns:xsi="http://www.w3.org/2001/XMLSchema-instance" xsi:schemaLocation="http://www.topografix.com/GPX/1/1 http://www.topografix.com/GPX/1/1/gpx.xsd" version="1.1" creator="VisuGPX - https://www.visugpx.com">
  <metadata>
    <name>Le Puy de Sancy en boucle par le Capucin et la Grande cascade</name>
  </metadata>
  <trk>
    <name><![CDATA[Le Puy de Sancy en boucle par le Capucin et la Grande cascade]]></name>
    <extensions>
      <line xmlns="http://www.topografix.com/GPX/gpx_style/0/2">
        <color>0000FF</color>
        <width>4</width>
      </line>
    </extensions>
    <trkseg>
      <trkpt lat="45.5721" lon="2.8117">
        <ele>1057</ele>
        <time>2021-10-29T21:45:58+02:00</time>
      </trkpt>
      <trkpt lat="45.57239" lon="2.81151">
        <ele>1055</ele>
        <time>2021-10-29T21:46:03+02:00</time>
      </trkpt>
      <trkpt lat="45.57236" lon="2.81142">
        <ele>1054</ele>
        <time>2021-10-29T21:46:08+02:00</time>
      </trkpt>
      <trkpt lat="45.57215" lon="2.81052">
        <ele>1050</ele>
        <time>2021-10-29T21:46:13+02:00</time>
      </trkpt>
      <trkpt lat="45.57205" lon="2.81011">
        <ele>1049</ele>
        <time>2021-10-29T21:46:18+02:00</time>
      </trkpt>
      <trkpt lat="45.57199" lon="2.80977">
        <ele>1050</ele>
        <time>2021-10-29T21:46:23+02:00</time>
      </trkpt>
      <trkpt lat="45.57193" lon="2.80949">
        <ele>1051</ele>
        <time>2021-10-29T21:46:28+02:00</time>
      </trkpt>
      <trkpt lat="45.57193" lon="2.80936">
        <ele>1051</ele>
        <time>2021-10-29T21:46:33+02:00</time>
      </trkpt>
      <trkpt lat="45.5718" lon="2.8092">
        <ele>1053</ele>
        <time>2021-10-29T21:46:38+02:00</time>
      </trkpt>
      <trkpt lat="45.57177" lon="2.8091">
        <ele>1054</ele>
        <time>2021-10-29T21:46:43+02:00</time>
      </trkpt>
      <trkpt lat="45.57173" lon="2.80901">
        <ele>1056</ele>
        <time>2021-10-29T21:46:48+02:00</time>
      </trkpt>
      <trkpt lat="45.57172" lon="2.80891">
        <ele>1057</ele>
        <time>2021-10-29T21:46:53+02:00</time>
      </trkpt>
      <trkpt lat="45.5717" lon="2.80882">
        <ele>1059</ele>
        <time>2021-10-29T21:46:58+02:00</time>
      </trkpt>
      <trkpt lat="45.5717" lon="2.80867">
        <ele>1061</ele>
        <time>2021-10-29T21:47:03+02:00</time>
      </trkpt>
      <trkpt lat="45.5717" lon="2.80854">
        <ele>1063</ele>
        <time>2021-10-29T21:47:08+02:00</time>
      </trkpt>
      <trkpt lat="45.57161" lon="2.80837">
        <ele>1068</ele>
        <time>2021-10-29T21:47:13+02:00</time>
      </trkpt>
      <trkpt lat="45.57159" lon="2.80819">
        <ele>1073</ele>
        <time>2021-10-29T21:47:18+02:00</time>
      </trkpt>
      <trkpt lat="45.57164" lon="2.80773">
        <ele>1081</ele>
        <time>2021-10-29T21:47:23+02:00</time>
      </trkpt>
      <trkpt lat="45.57156" lon="2.80754">
        <ele>1087</ele>
        <time>2021-10-29T21:47:28+02:00</time>
      </trkpt>
      <trkpt lat="45.57141" lon="2.80737">
        <ele>1097</ele>
        <time>2021-10-29T21:47:33+02:00</time>
      </trkpt>
      <trkpt lat="45.57135" lon="2.80721">
        <ele>1103</ele>
        <time>2021-10-29T21:47:38+02:00</time>
      </trkpt>
      <trkpt lat="45.57133" lon="2.80706">
        <ele>1106</ele>
        <time>2021-10-29T21:47:43+02:00</time>
      </trkpt>
      <trkpt lat="45.5714" lon="2.80676">
        <ele>1110</ele>
        <time>2021-10-29T21:47:48+02:00</time>
      </trkpt>
      <trkpt lat="45.57148" lon="2.80651">
        <ele>1113</ele>
        <time>2021-10-29T21:47:53+02:00</time>
      </trkpt>
      <trkpt lat="45.57154" lon="2.80632">
        <ele>1116</ele>
        <time>2021-10-29T21:47:58+02:00</time>
      </trkpt>
      <trkpt lat="45.57163" lon="2.80598">
        <ele>1122</ele>
        <time>2021-10-29T21:48:03+02:00</time>
      </trkpt>
      <trkpt lat="45.57178" lon="2.80563">
        <ele>1128</ele>
        <time>2021-10-29T21:48:08+02:00</time>
      </trkpt>
      <trkpt lat="45.57191" lon="2.8054">
        <ele>1132</ele>
        <time>2021-10-29T21:48:13+02:00</time>
      </trkpt>
      <trkpt lat="45.57198" lon="2.80541">
        <ele>1130</ele>
        <time>2021-10-29T21:48:18+02:00</time>
      </trkpt>
      <trkpt lat="45.57204" lon="2.8053">
        <ele>1132</ele>
        <time>2021-10-29T21:48:23+02:00</time>
      </trkpt>
      <trkpt lat="45.57223" lon="2.80533">
        <ele>1127</ele>
        <time>2021-10-29T21:48:28+02:00</time>
      </trkpt>
      <trkpt lat="45.57238" lon="2.80529">
        <ele>1125</ele>
        <time>2021-10-29T21:48:33+02:00</time>
      </trkpt>
      <trkpt lat="45.57247" lon="2.80519">
        <ele>1127</ele>
        <time>2021-10-29T21:48:38+02:00</time>
      </trkpt>
      <trkpt lat="45.57249" lon="2.80502">
        <ele>1131</ele>
        <time>2021-10-29T21:48:43+02:00</time>
      </trkpt>
      <trkpt lat="45.57247" lon="2.80487">
        <ele>1135</ele>
        <time>2021-10-29T21:48:48+02:00</time>
      </trkpt>
      <trkpt lat="45.57241" lon="2.80479">
        <ele>1137</ele>
        <time>2021-10-29T21:48:53+02:00</time>
      </trkpt>
      <trkpt lat="45.5723" lon="2.8047">
        <ele>1141</ele>
        <time>2021-10-29T21:48:58+02:00</time>
      </trkpt>
      <trkpt lat="45.57214" lon="2.80459">
        <ele>1148</ele>
        <time>2021-10-29T21:49:03+02:00</time>
      </trkpt>
      <trkpt lat="45.572" lon="2.8046">
        <ele>1151</ele>
        <time>2021-10-29T21:49:08+02:00</time>
      </trkpt>
      <trkpt lat="45.57179" lon="2.80457">
        <ele>1157</ele>
        <time>2021-10-29T21:49:13+02:00</time>
      </trkpt>
      <trkpt lat="45.57164" lon="2.80455">
        <ele>1162</ele>
        <time>2021-10-29T21:49:18+02:00</time>
      </trkpt>
      <trkpt lat="45.57144" lon="2.80459">
        <ele>1167</ele>
        <time>2021-10-29T21:49:23+02:00</time>
      </trkpt>
      <trkpt lat="45.57133" lon="2.80467">
        <ele>1168</ele>
        <time>2021-10-29T21:49:28+02:00</time>
      </trkpt>
      <trkpt lat="45.57131" lon="2.80479">
        <ele>1165</ele>
        <time>2021-10-29T21:49:33+02:00</time>
      </trkpt>
      <trkpt lat="45.57127" lon="2.80496">
        <ele>1160</ele>
        <time>2021-10-29T21:49:38+02:00</time>
      </trkpt>
      <trkpt lat="45.57122" lon="2.80502">
        <ele>1160</ele>
        <time>2021-10-29T21:49:43+02:00</time>
      </trkpt>
      <trkpt lat="45.57116" lon="2.80511">
        <ele>1158</ele>
        <time>2021-10-29T21:49:48+02:00</time>
      </trkpt>
      <trkpt lat="45.57107" lon="2.80513">
        <ele>1160</ele>
        <time>2021-10-29T21:49:53+02:00</time>
      </trkpt>
      <trkpt lat="45.57106" lon="2.80493">
        <ele>1168</ele>
        <time>2021-10-29T21:49:58+02:00</time>
      </trkpt>
      <trkpt lat="45.5711" lon="2.80471">
        <ele>1174</ele>
        <time>2021-10-29T21:50:03+02:00</time>
      </trkpt>
      <trkpt lat="45.57113" lon="2.80453">
        <ele>1179</ele>
        <time>2021-10-29T21:50:08+02:00</time>
      </trkpt>
      <trkpt lat="45.57118" lon="2.80434">
        <ele>1184</ele>
        <time>2021-10-29T21:50:13+02:00</time>
      </trkpt>
      <trkpt lat="45.57123" lon="2.80414">
        <ele>1188</ele>
        <time>2021-10-29T21:50:18+02:00</time>
      </trkpt>
      <trkpt lat="45.57129" lon="2.80397">
        <ele>1192</ele>
        <time>2021-10-29T21:50:23+02:00</time>
      </trkpt>
      <trkpt lat="45.57139" lon="2.80386">
        <ele>1192</ele>
        <time>2021-10-29T21:50:28+02:00</time>
      </trkpt>
      <trkpt lat="45.57149" lon="2.80362">
        <ele>1196</ele>
        <time>2021-10-29T21:50:33+02:00</time>
      </trkpt>
      <trkpt lat="45.5715" lon="2.80346">
        <ele>1201</ele>
        <time>2021-10-29T21:50:38+02:00</time>
      </trkpt>
      <trkpt lat="45.57141" lon="2.8035">
        <ele>1203</ele>
        <time>2021-10-29T21:50:43+02:00</time>
      </trkpt>
      <trkpt lat="45.57134" lon="2.80365">
        <ele>1200</ele>
        <time>2021-10-29T21:50:48+02:00</time>
      </trkpt>
      <trkpt lat="45.57127" lon="2.80373">
        <ele>1200</ele>
        <time>2021-10-29T21:50:53+02:00</time>
      </trkpt>
      <trkpt lat="45.57114" lon="2.80383">
        <ele>1202</ele>
        <time>2021-10-29T21:50:58+02:00</time>
      </trkpt>
      <trkpt lat="45.57105" lon="2.80388">
        <ele>1203</ele>
        <time>2021-10-29T21:51:03+02:00</time>
      </trkpt>
      <trkpt lat="45.57099" lon="2.80395">
        <ele>1203</ele>
        <time>2021-10-29T21:51:08+02:00</time>
      </trkpt>
      <trkpt lat="45.57092" lon="2.804">
        <ele>1204</ele>
        <time>2021-10-29T21:51:13+02:00</time>
      </trkpt>
      <trkpt lat="45.57084" lon="2.80408">
        <ele>1205</ele>
        <time>2021-10-29T21:51:18+02:00</time>
      </trkpt>
      <trkpt lat="45.57072" lon="2.80409">
        <ele>1207</ele>
        <time>2021-10-29T21:51:23+02:00</time>
      </trkpt>
      <trkpt lat="45.57059" lon="2.80407">
        <ele>1211</ele>
        <time>2021-10-29T21:51:28+02:00</time>
      </trkpt>
      <trkpt lat="45.5705" lon="2.80408">
        <ele>1213</ele>
        <time>2021-10-29T21:51:33+02:00</time>
      </trkpt>
      <trkpt lat="45.5704" lon="2.80409">
        <ele>1215</ele>
        <time>2021-10-29T21:51:38+02:00</time>
      </trkpt>
      <trkpt lat="45.57023" lon="2.80408">
        <ele>1219</ele>
        <time>2021-10-29T21:51:43+02:00</time>
      </trkpt>
      <trkpt lat="45.57013" lon="2.80404">
        <ele>1223</ele>
        <time>2021-10-29T21:51:48+02:00</time>
      </trkpt>
      <trkpt lat="45.57007" lon="2.80403">
        <ele>1224</ele>
        <time>2021-10-29T21:51:53+02:00</time>
      </trkpt>
      <trkpt lat="45.57001" lon="2.80405">
        <ele>1225</ele>
        <time>2021-10-29T21:51:58+02:00</time>
      </trkpt>
      <trkpt lat="45.56994" lon="2.8041">
        <ele>1225</ele>
        <time>2021-10-29T21:52:03+02:00</time>
      </trkpt>
      <trkpt lat="45.56984" lon="2.80422">
        <ele>1224</ele>
        <time>2021-10-29T21:52:08+02:00</time>
      </trkpt>
      <trkpt lat="45.56972" lon="2.80434">
        <ele>1223</ele>
        <time>2021-10-29T21:52:13+02:00</time>
      </trkpt>
      <trkpt lat="45.5696" lon="2.80439">
        <ele>1224</ele>
        <time>2021-10-29T21:52:18+02:00</time>
      </trkpt>
      <trkpt lat="45.56949" lon="2.80447">
        <ele>1224</ele>
        <time>2021-10-29T21:52:23+02:00</time>
      </trkpt>
      <trkpt lat="45.56934" lon="2.80458">
        <ele>1226</ele>
        <time>2021-10-29T21:52:28+02:00</time>
      </trkpt>
      <trkpt lat="45.56919" lon="2.80469">
        <ele>1227</ele>
        <time>2021-10-29T21:52:33+02:00</time>
      </trkpt>
      <trkpt lat="45.56905" lon="2.80478">
        <ele>1228</ele>
        <time>2021-10-29T21:52:38+02:00</time>
      </trkpt>
      <trkpt lat="45.56893" lon="2.80478">
        <ele>1230</ele>
        <time>2021-10-29T21:52:43+02:00</time>
      </trkpt>
      <trkpt lat="45.56877" lon="2.80477">
        <ele>1232</ele>
        <time>2021-10-29T21:52:48+02:00</time>
      </trkpt>
      <trkpt lat="45.56866" lon="2.80469">
        <ele>1235</ele>
        <time>2021-10-29T21:52:53+02:00</time>
      </trkpt>
      <trkpt lat="45.56862" lon="2.80465">
        <ele>1236</ele>
        <time>2021-10-29T21:52:58+02:00</time>
      </trkpt>
      <trkpt lat="45.56855" lon="2.80458">
        <ele>1238</ele>
        <time>2021-10-29T21:53:03+02:00</time>
      </trkpt>
      <trkpt lat="45.56847" lon="2.80445">
        <ele>1240</ele>
        <time>2021-10-29T21:53:08+02:00</time>
      </trkpt>
      <trkpt lat="45.56841" lon="2.80436">
        <ele>1242</ele>
        <time>2021-10-29T21:53:13+02:00</time>
      </trkpt>
      <trkpt lat="45.56844" lon="2.80423">
        <ele>1244</ele>
        <time>2021-10-29T21:53:18+02:00</time>
      </trkpt>
      <trkpt lat="45.56853" lon="2.8041">
        <ele>1244</ele>
        <time>2021-10-29T21:53:23+02:00</time>
      </trkpt>
      <trkpt lat="45.56862" lon="2.80393">
        <ele>1245</ele>
        <time>2021-10-29T21:53:28+02:00</time>
      </trkpt>
      <trkpt lat="45.56871" lon="2.8038">
        <ele>1245</ele>
        <time>2021-10-29T21:53:33+02:00</time>
      </trkpt>
      <trkpt lat="45.56878" lon="2.80372">
        <ele>1245</ele>
        <time>2021-10-29T21:53:38+02:00</time>
      </trkpt>
      <trkpt lat="45.56888" lon="2.80359">
        <ele>1246</ele>
        <time>2021-10-29T21:53:43+02:00</time>
      </trkpt>
      <trkpt lat="45.56915" lon="2.80309">
        <ele>1248</ele>
        <time>2021-10-29T21:53:48+02:00</time>
      </trkpt>
      <trkpt lat="45.56916" lon="2.80277">
        <ele>1250</ele>
        <time>2021-10-29T21:53:53+02:00</time>
      </trkpt>
      <trkpt lat="45.56907" lon="2.80243">
        <ele>1251</ele>
        <time>2021-10-29T21:53:58+02:00</time>
      </trkpt>
      <trkpt lat="45.56902" lon="2.80247">
        <ele>1252</ele>
        <time>2021-10-29T21:54:03+02:00</time>
      </trkpt>
      <trkpt lat="45.56888" lon="2.80258">
        <ele>1252</ele>
        <time>2021-10-29T21:54:08+02:00</time>
      </trkpt>
      <trkpt lat="45.56874" lon="2.80263">
        <ele>1252</ele>
        <time>2021-10-29T21:54:13+02:00</time>
      </trkpt>
      <trkpt lat="45.56844" lon="2.80263">
        <ele>1253</ele>
        <time>2021-10-29T21:54:18+02:00</time>
      </trkpt>
      <trkpt lat="45.56817" lon="2.80257">
        <ele>1257</ele>
        <time>2021-10-29T21:54:23+02:00</time>
      </trkpt>
      <trkpt lat="45.56787" lon="2.80251">
        <ele>1262</ele>
        <time>2021-10-29T21:54:28+02:00</time>
      </trkpt>
      <trkpt lat="45.56776" lon="2.80243">
        <ele>1264</ele>
        <time>2021-10-29T21:54:33+02:00</time>
      </trkpt>
      <trkpt lat="45.56769" lon="2.80228">
        <ele>1265</ele>
        <time>2021-10-29T21:54:38+02:00</time>
      </trkpt>
      <trkpt lat="45.56761" lon="2.80211">
        <ele>1267</ele>
        <time>2021-10-29T21:54:43+02:00</time>
      </trkpt>
      <trkpt lat="45.56747" lon="2.80202">
        <ele>1269</ele>
        <time>2021-10-29T21:54:48+02:00</time>
      </trkpt>
      <trkpt lat="45.56729" lon="2.80202">
        <ele>1271</ele>
        <time>2021-10-29T21:54:53+02:00</time>
      </trkpt>
      <trkpt lat="45.56672" lon="2.80217">
        <ele>1280</ele>
        <time>2021-10-29T21:54:58+02:00</time>
      </trkpt>
      <trkpt lat="45.56633" lon="2.80233">
        <ele>1286</ele>
        <time>2021-10-29T21:55:03+02:00</time>
      </trkpt>
      <trkpt lat="45.56611" lon="2.80239">
        <ele>1289</ele>
        <time>2021-10-29T21:55:08+02:00</time>
      </trkpt>
      <trkpt lat="45.56583" lon="2.80246">
        <ele>1293</ele>
        <time>2021-10-29T21:55:13+02:00</time>
      </trkpt>
      <trkpt lat="45.56566" lon="2.80254">
        <ele>1297</ele>
        <time>2021-10-29T21:55:18+02:00</time>
      </trkpt>
      <trkpt lat="45.56545" lon="2.80269">
        <ele>1302</ele>
        <time>2021-10-29T21:55:23+02:00</time>
      </trkpt>
      <trkpt lat="45.56528" lon="2.80274">
        <ele>1305</ele>
        <time>2021-10-29T21:55:28+02:00</time>
      </trkpt>
      <trkpt lat="45.56516" lon="2.80272">
        <ele>1308</ele>
        <time>2021-10-29T21:55:33+02:00</time>
      </trkpt>
      <trkpt lat="45.56508" lon="2.80268">
        <ele>1309</ele>
        <time>2021-10-29T21:55:38+02:00</time>
      </trkpt>
      <trkpt lat="45.56499" lon="2.80249">
        <ele>1312</ele>
        <time>2021-10-29T21:55:43+02:00</time>
      </trkpt>
      <trkpt lat="45.56491" lon="2.80239">
        <ele>1313</ele>
        <time>2021-10-29T21:55:48+02:00</time>
      </trkpt>
      <trkpt lat="45.5648" lon="2.80238">
        <ele>1314</ele>
        <time>2021-10-29T21:55:53+02:00</time>
      </trkpt>
      <trkpt lat="45.5647" lon="2.80237">
        <ele>1316</ele>
        <time>2021-10-29T21:55:58+02:00</time>
      </trkpt>
      <trkpt lat="45.56432" lon="2.80234">
        <ele>1321</ele>
        <time>2021-10-29T21:56:03+02:00</time>
      </trkpt>
      <trkpt lat="45.56398" lon="2.80228">
        <ele>1325</ele>
        <time>2021-10-29T21:56:08+02:00</time>
      </trkpt>
      <trkpt lat="45.56381" lon="2.80222">
        <ele>1326</ele>
        <time>2021-10-29T21:56:13+02:00</time>
      </trkpt>
      <trkpt lat="45.56368" lon="2.80212">
        <ele>1328</ele>
        <time>2021-10-29T21:56:18+02:00</time>
      </trkpt>
      <trkpt lat="45.56359" lon="2.80197">
        <ele>1330</ele>
        <time>2021-10-29T21:56:23+02:00</time>
      </trkpt>
      <trkpt lat="45.56349" lon="2.80176">
        <ele>1333</ele>
        <time>2021-10-29T21:56:28+02:00</time>
      </trkpt>
      <trkpt lat="45.56341" lon="2.80153">
        <ele>1335</ele>
        <time>2021-10-29T21:56:33+02:00</time>
      </trkpt>
      <trkpt lat="45.56329" lon="2.80141">
        <ele>1337</ele>
        <time>2021-10-29T21:56:38+02:00</time>
      </trkpt>
      <trkpt lat="45.5631" lon="2.80131">
        <ele>1338</ele>
        <time>2021-10-29T21:56:43+02:00</time>
      </trkpt>
      <trkpt lat="45.56293" lon="2.80127">
        <ele>1339</ele>
        <time>2021-10-29T21:56:48+02:00</time>
      </trkpt>
      <trkpt lat="45.56281" lon="2.80123">
        <ele>1340</ele>
        <time>2021-10-29T21:56:53+02:00</time>
      </trkpt>
      <trkpt lat="45.56271" lon="2.80119">
        <ele>1340</ele>
        <time>2021-10-29T21:56:58+02:00</time>
      </trkpt>
      <trkpt lat="45.56257" lon="2.80116">
        <ele>1341</ele>
        <time>2021-10-29T21:57:03+02:00</time>
      </trkpt>
      <trkpt lat="45.56238" lon="2.80118">
        <ele>1343</ele>
        <time>2021-10-29T21:57:08+02:00</time>
      </trkpt>
      <trkpt lat="45.56218" lon="2.80123">
        <ele>1347</ele>
        <time>2021-10-29T21:57:13+02:00</time>
      </trkpt>
      <trkpt lat="45.56197" lon="2.80124">
        <ele>1351</ele>
        <time>2021-10-29T21:57:18+02:00</time>
      </trkpt>
      <trkpt lat="45.56175" lon="2.80119">
        <ele>1354</ele>
        <time>2021-10-29T21:57:23+02:00</time>
      </trkpt>
      <trkpt lat="45.56157" lon="2.80113">
        <ele>1356</ele>
        <time>2021-10-29T21:57:28+02:00</time>
      </trkpt>
      <trkpt lat="45.56135" lon="2.80109">
        <ele>1359</ele>
        <time>2021-10-29T21:57:33+02:00</time>
      </trkpt>
      <trkpt lat="45.56085" lon="2.801">
        <ele>1366</ele>
        <time>2021-10-29T21:57:38+02:00</time>
      </trkpt>
      <trkpt lat="45.56054" lon="2.8009">
        <ele>1366</ele>
        <time>2021-10-29T21:57:43+02:00</time>
      </trkpt>
      <trkpt lat="45.56032" lon="2.80084">
        <ele>1367</ele>
        <time>2021-10-29T21:57:48+02:00</time>
      </trkpt>
      <trkpt lat="45.56013" lon="2.80079">
        <ele>1369</ele>
        <time>2021-10-29T21:57:53+02:00</time>
      </trkpt>
      <trkpt lat="45.55966" lon="2.80057">
        <ele>1369</ele>
        <time>2021-10-29T21:57:58+02:00</time>
      </trkpt>
      <trkpt lat="45.55942" lon="2.80046">
        <ele>1369</ele>
        <time>2021-10-29T21:58:03+02:00</time>
      </trkpt>
      <trkpt lat="45.55917" lon="2.80044">
        <ele>1372</ele>
        <time>2021-10-29T21:58:08+02:00</time>
      </trkpt>
      <trkpt lat="45.55893" lon="2.80049">
        <ele>1375</ele>
        <time>2021-10-29T21:58:13+02:00</time>
      </trkpt>
      <trkpt lat="45.55874" lon="2.80051">
        <ele>1376</ele>
        <time>2021-10-29T21:58:18+02:00</time>
      </trkpt>
      <trkpt lat="45.55863" lon="2.80056">
        <ele>1377</ele>
        <time>2021-10-29T21:58:23+02:00</time>
      </trkpt>
      <trkpt lat="45.55866" lon="2.80071">
        <ele>1380</ele>
        <time>2021-10-29T21:58:28+02:00</time>
      </trkpt>
      <trkpt lat="45.55884" lon="2.80081">
        <ele>1382</ele>
        <time>2021-10-29T21:58:33+02:00</time>
      </trkpt>
      <trkpt lat="45.55904" lon="2.80088">
        <ele>1383</ele>
        <time>2021-10-29T21:58:38+02:00</time>
      </trkpt>
      <trkpt lat="45.55923" lon="2.80099">
        <ele>1385</ele>
        <time>2021-10-29T21:58:43+02:00</time>
      </trkpt>
      <trkpt lat="45.55925" lon="2.80106">
        <ele>1387</ele>
        <time>2021-10-29T21:58:48+02:00</time>
      </trkpt>
      <trkpt lat="45.55919" lon="2.80112">
        <ele>1389</ele>
        <time>2021-10-29T21:58:53+02:00</time>
      </trkpt>
      <trkpt lat="45.55912" lon="2.80114">
        <ele>1389</ele>
        <time>2021-10-29T21:58:58+02:00</time>
      </trkpt>
      <trkpt lat="45.55896" lon="2.80122">
        <ele>1391</ele>
        <time>2021-10-29T21:59:03+02:00</time>
      </trkpt>
      <trkpt lat="45.55875" lon="2.80131">
        <ele>1392</ele>
        <time>2021-10-29T21:59:08+02:00</time>
      </trkpt>
      <trkpt lat="45.55831" lon="2.80153">
        <ele>1394</ele>
        <time>2021-10-29T21:59:13+02:00</time>
      </trkpt>
      <trkpt lat="45.55797" lon="2.80173">
        <ele>1397</ele>
        <time>2021-10-29T21:59:18+02:00</time>
      </trkpt>
      <trkpt lat="45.55782" lon="2.80186">
        <ele>1399</ele>
        <time>2021-10-29T21:59:23+02:00</time>
      </trkpt>
      <trkpt lat="45.55754" lon="2.80201">
        <ele>1402</ele>
        <time>2021-10-29T21:59:28+02:00</time>
      </trkpt>
      <trkpt lat="45.55744" lon="2.80205">
        <ele>1403</ele>
        <time>2021-10-29T21:59:33+02:00</time>
      </trkpt>
      <trkpt lat="45.55707" lon="2.80216">
        <ele>1407</ele>
        <time>2021-10-29T21:59:38+02:00</time>
      </trkpt>
      <trkpt lat="45.55684" lon="2.80229">
        <ele>1411</ele>
        <time>2021-10-29T21:59:43+02:00</time>
      </trkpt>
      <trkpt lat="45.55667" lon="2.80239">
        <ele>1414</ele>
        <time>2021-10-29T21:59:48+02:00</time>
      </trkpt>
      <trkpt lat="45.55653" lon="2.80239">
        <ele>1416</ele>
        <time>2021-10-29T21:59:53+02:00</time>
      </trkpt>
      <trkpt lat="45.5564" lon="2.80236">
        <ele>1417</ele>
        <time>2021-10-29T21:59:58+02:00</time>
      </trkpt>
      <trkpt lat="45.5562" lon="2.80233">
        <ele>1419</ele>
        <time>2021-10-29T22:00:03+02:00</time>
      </trkpt>
      <trkpt lat="45.55602" lon="2.80236">
        <ele>1421</ele>
        <time>2021-10-29T22:00:08+02:00</time>
      </trkpt>
      <trkpt lat="45.55575" lon="2.80228">
        <ele>1422</ele>
        <time>2021-10-29T22:00:13+02:00</time>
      </trkpt>
      <trkpt lat="45.55548" lon="2.80216">
        <ele>1421</ele>
        <time>2021-10-29T22:00:18+02:00</time>
      </trkpt>
      <trkpt lat="45.55534" lon="2.80206">
        <ele>1421</ele>
        <time>2021-10-29T22:00:23+02:00</time>
      </trkpt>
      <trkpt lat="45.55518" lon="2.80193">
        <ele>1423</ele>
        <time>2021-10-29T22:00:28+02:00</time>
      </trkpt>
      <trkpt lat="45.55504" lon="2.80183">
        <ele>1425</ele>
        <time>2021-10-29T22:00:33+02:00</time>
      </trkpt>
      <trkpt lat="45.55488" lon="2.80173">
        <ele>1427</ele>
        <time>2021-10-29T22:00:38+02:00</time>
      </trkpt>
      <trkpt lat="45.55474" lon="2.80162">
        <ele>1429</ele>
        <time>2021-10-29T22:00:43+02:00</time>
      </trkpt>
      <trkpt lat="45.55459" lon="2.80152">
        <ele>1431</ele>
        <time>2021-10-29T22:00:48+02:00</time>
      </trkpt>
      <trkpt lat="45.55441" lon="2.80145">
        <ele>1433</ele>
        <time>2021-10-29T22:00:53+02:00</time>
      </trkpt>
      <trkpt lat="45.55431" lon="2.80138">
        <ele>1435</ele>
        <time>2021-10-29T22:00:58+02:00</time>
      </trkpt>
      <trkpt lat="45.55414" lon="2.80132">
        <ele>1438</ele>
        <time>2021-10-29T22:01:03+02:00</time>
      </trkpt>
      <trkpt lat="45.55399" lon="2.80124">
        <ele>1440</ele>
        <time>2021-10-29T22:01:08+02:00</time>
      </trkpt>
      <trkpt lat="45.55387" lon="2.80114">
        <ele>1443</ele>
        <time>2021-10-29T22:01:13+02:00</time>
      </trkpt>
      <trkpt lat="45.55367" lon="2.80093">
        <ele>1450</ele>
        <time>2021-10-29T22:01:18+02:00</time>
      </trkpt>
      <trkpt lat="45.55353" lon="2.80071">
        <ele>1454</ele>
        <time>2021-10-29T22:01:23+02:00</time>
      </trkpt>
      <trkpt lat="45.55339" lon="2.80041">
        <ele>1457</ele>
        <time>2021-10-29T22:01:28+02:00</time>
      </trkpt>
      <trkpt lat="45.55329" lon="2.80009">
        <ele>1460</ele>
        <time>2021-10-29T22:01:33+02:00</time>
      </trkpt>
      <trkpt lat="45.55324" lon="2.79998">
        <ele>1461</ele>
        <time>2021-10-29T22:01:38+02:00</time>
      </trkpt>
      <trkpt lat="45.55318" lon="2.79991">
        <ele>1463</ele>
        <time>2021-10-29T22:01:43+02:00</time>
      </trkpt>
      <trkpt lat="45.55297" lon="2.79971">
        <ele>1467</ele>
        <time>2021-10-29T22:01:48+02:00</time>
      </trkpt>
      <trkpt lat="45.55284" lon="2.7995">
        <ele>1469</ele>
        <time>2021-10-29T22:01:53+02:00</time>
      </trkpt>
      <trkpt lat="45.55276" lon="2.79949">
        <ele>1472</ele>
        <time>2021-10-29T22:01:58+02:00</time>
      </trkpt>
      <trkpt lat="45.5527" lon="2.79952">
        <ele>1473</ele>
        <time>2021-10-29T22:02:03+02:00</time>
      </trkpt>
      <trkpt lat="45.55266" lon="2.79958">
        <ele>1474</ele>
        <time>2021-10-29T22:02:08+02:00</time>
      </trkpt>
      <trkpt lat="45.55255" lon="2.79956">
        <ele>1477</ele>
        <time>2021-10-29T22:02:13+02:00</time>
      </trkpt>
      <trkpt lat="45.55248" lon="2.7996">
        <ele>1479</ele>
        <time>2021-10-29T22:02:18+02:00</time>
      </trkpt>
      <trkpt lat="45.55244" lon="2.79971">
        <ele>1480</ele>
        <time>2021-10-29T22:02:23+02:00</time>
      </trkpt>
      <trkpt lat="45.5524" lon="2.79987">
        <ele>1481</ele>
        <time>2021-10-29T22:02:28+02:00</time>
      </trkpt>
      <trkpt lat="45.55229" lon="2.79997">
        <ele>1484</ele>
        <time>2021-10-29T22:02:33+02:00</time>
      </trkpt>
      <trkpt lat="45.55213" lon="2.80007">
        <ele>1485</ele>
        <time>2021-10-29T22:02:38+02:00</time>
      </trkpt>
      <trkpt lat="45.55192" lon="2.80014">
        <ele>1487</ele>
        <time>2021-10-29T22:02:43+02:00</time>
      </trkpt>
      <trkpt lat="45.55181" lon="2.80018">
        <ele>1488</ele>
        <time>2021-10-29T22:02:48+02:00</time>
      </trkpt>
      <trkpt lat="45.5517" lon="2.8002">
        <ele>1489</ele>
        <time>2021-10-29T22:02:53+02:00</time>
      </trkpt>
      <trkpt lat="45.5516" lon="2.80014">
        <ele>1493</ele>
        <time>2021-10-29T22:02:58+02:00</time>
      </trkpt>
      <trkpt lat="45.55151" lon="2.80008">
        <ele>1496</ele>
        <time>2021-10-29T22:03:03+02:00</time>
      </trkpt>
      <trkpt lat="45.55141" lon="2.80007">
        <ele>1499</ele>
        <time>2021-10-29T22:03:08+02:00</time>
      </trkpt>
      <trkpt lat="45.5512" lon="2.80013">
        <ele>1502</ele>
        <time>2021-10-29T22:03:13+02:00</time>
      </trkpt>
      <trkpt lat="45.55105" lon="2.80009">
        <ele>1507</ele>
        <time>2021-10-29T22:03:18+02:00</time>
      </trkpt>
      <trkpt lat="45.55094" lon="2.80003">
        <ele>1510</ele>
        <time>2021-10-29T22:03:23+02:00</time>
      </trkpt>
      <trkpt lat="45.5507" lon="2.79986">
        <ele>1515</ele>
        <time>2021-10-29T22:03:28+02:00</time>
      </trkpt>
      <trkpt lat="45.55051" lon="2.79988">
        <ele>1518</ele>
        <time>2021-10-29T22:03:33+02:00</time>
      </trkpt>
      <trkpt lat="45.55039" lon="2.8001">
        <ele>1518</ele>
        <time>2021-10-29T22:03:38+02:00</time>
      </trkpt>
      <trkpt lat="45.5503" lon="2.80035">
        <ele>1516</ele>
        <time>2021-10-29T22:03:43+02:00</time>
      </trkpt>
      <trkpt lat="45.55018" lon="2.80048">
        <ele>1516</ele>
        <time>2021-10-29T22:03:48+02:00</time>
      </trkpt>
      <trkpt lat="45.54985" lon="2.8003">
        <ele>1523</ele>
        <time>2021-10-29T22:03:53+02:00</time>
      </trkpt>
      <trkpt lat="45.54972" lon="2.80014">
        <ele>1527</ele>
        <time>2021-10-29T22:03:58+02:00</time>
      </trkpt>
      <trkpt lat="45.54964" lon="2.79998">
        <ele>1530</ele>
        <time>2021-10-29T22:04:03+02:00</time>
      </trkpt>
      <trkpt lat="45.54951" lon="2.79983">
        <ele>1532</ele>
        <time>2021-10-29T22:04:08+02:00</time>
      </trkpt>
      <trkpt lat="45.5493" lon="2.79951">
        <ele>1534</ele>
        <time>2021-10-29T22:04:13+02:00</time>
      </trkpt>
      <trkpt lat="45.54919" lon="2.79929">
        <ele>1535</ele>
        <time>2021-10-29T22:04:18+02:00</time>
      </trkpt>
      <trkpt lat="45.54907" lon="2.79927">
        <ele>1537</ele>
        <time>2021-10-29T22:04:23+02:00</time>
      </trkpt>
      <trkpt lat="45.5489" lon="2.79917">
        <ele>1541</ele>
        <time>2021-10-29T22:04:28+02:00</time>
      </trkpt>
      <trkpt lat="45.5488" lon="2.79917">
        <ele>1543</ele>
        <time>2021-10-29T22:04:33+02:00</time>
      </trkpt>
      <trkpt lat="45.54856" lon="2.79933">
        <ele>1548</ele>
        <time>2021-10-29T22:04:38+02:00</time>
      </trkpt>
      <trkpt lat="45.54851" lon="2.79956">
        <ele>1548</ele>
        <time>2021-10-29T22:04:43+02:00</time>
      </trkpt>
      <trkpt lat="45.54828" lon="2.79983">
        <ele>1552</ele>
        <time>2021-10-29T22:04:48+02:00</time>
      </trkpt>
      <trkpt lat="45.54798" lon="2.80008">
        <ele>1560</ele>
        <time>2021-10-29T22:04:53+02:00</time>
      </trkpt>
      <trkpt lat="45.54789" lon="2.79984">
        <ele>1567</ele>
        <time>2021-10-29T22:04:58+02:00</time>
      </trkpt>
      <trkpt lat="45.5478" lon="2.79966">
        <ele>1571</ele>
        <time>2021-10-29T22:05:03+02:00</time>
      </trkpt>
      <trkpt lat="45.5477" lon="2.79952">
        <ele>1575</ele>
        <time>2021-10-29T22:05:08+02:00</time>
      </trkpt>
      <trkpt lat="45.54759" lon="2.79946">
        <ele>1579</ele>
        <time>2021-10-29T22:05:13+02:00</time>
      </trkpt>
      <trkpt lat="45.5475" lon="2.7993">
        <ele>1582</ele>
        <time>2021-10-29T22:05:18+02:00</time>
      </trkpt>
      <trkpt lat="45.54744" lon="2.79917">
        <ele>1585</ele>
        <time>2021-10-29T22:05:23+02:00</time>
      </trkpt>
      <trkpt lat="45.54738" lon="2.79908">
        <ele>1586</ele>
        <time>2021-10-29T22:05:28+02:00</time>
      </trkpt>
      <trkpt lat="45.54731" lon="2.7991">
        <ele>1590</ele>
        <time>2021-10-29T22:05:33+02:00</time>
      </trkpt>
      <trkpt lat="45.54725" lon="2.79942">
        <ele>1593</ele>
        <time>2021-10-29T22:05:38+02:00</time>
      </trkpt>
      <trkpt lat="45.54715" lon="2.79977">
        <ele>1597</ele>
        <time>2021-10-29T22:05:43+02:00</time>
      </trkpt>
      <trkpt lat="45.54704" lon="2.80003">
        <ele>1601</ele>
        <time>2021-10-29T22:05:48+02:00</time>
      </trkpt>
      <trkpt lat="45.54691" lon="2.80022">
        <ele>1603</ele>
        <time>2021-10-29T22:05:53+02:00</time>
      </trkpt>
      <trkpt lat="45.54675" lon="2.79976">
        <ele>1615</ele>
        <time>2021-10-29T22:05:58+02:00</time>
      </trkpt>
      <trkpt lat="45.54663" lon="2.79952">
        <ele>1620</ele>
        <time>2021-10-29T22:06:03+02:00</time>
      </trkpt>
      <trkpt lat="45.54654" lon="2.79934">
        <ele>1622</ele>
        <time>2021-10-29T22:06:08+02:00</time>
      </trkpt>
      <trkpt lat="45.54649" lon="2.79943">
        <ele>1623</ele>
        <time>2021-10-29T22:06:13+02:00</time>
      </trkpt>
      <trkpt lat="45.54647" lon="2.79955">
        <ele>1624</ele>
        <time>2021-10-29T22:06:18+02:00</time>
      </trkpt>
      <trkpt lat="45.54631" lon="2.79985">
        <ele>1631</ele>
        <time>2021-10-29T22:06:23+02:00</time>
      </trkpt>
      <trkpt lat="45.54624" lon="2.80005">
        <ele>1633</ele>
        <time>2021-10-29T22:06:28+02:00</time>
      </trkpt>
      <trkpt lat="45.5462" lon="2.80018">
        <ele>1633</ele>
        <time>2021-10-29T22:06:33+02:00</time>
      </trkpt>
      <trkpt lat="45.5462" lon="2.80038">
        <ele>1631</ele>
        <time>2021-10-29T22:06:38+02:00</time>
      </trkpt>
      <trkpt lat="45.54609" lon="2.80045">
        <ele>1635</ele>
        <time>2021-10-29T22:06:43+02:00</time>
      </trkpt>
      <trkpt lat="45.54592" lon="2.80049">
        <ele>1643</ele>
        <time>2021-10-29T22:06:48+02:00</time>
      </trkpt>
      <trkpt lat="45.54583" lon="2.80054">
        <ele>1646</ele>
        <time>2021-10-29T22:06:53+02:00</time>
      </trkpt>
      <trkpt lat="45.5457" lon="2.80083">
        <ele>1648</ele>
        <time>2021-10-29T22:06:58+02:00</time>
      </trkpt>
      <trkpt lat="45.54549" lon="2.8011">
        <ele>1649</ele>
        <time>2021-10-29T22:07:03+02:00</time>
      </trkpt>
      <trkpt lat="45.54518" lon="2.8014">
        <ele>1656</ele>
        <time>2021-10-29T22:07:08+02:00</time>
      </trkpt>
      <trkpt lat="45.54494" lon="2.80161">
        <ele>1664</ele>
        <time>2021-10-29T22:07:13+02:00</time>
      </trkpt>
      <trkpt lat="45.54466" lon="2.80155">
        <ele>1666</ele>
        <time>2021-10-29T22:07:18+02:00</time>
      </trkpt>
      <trkpt lat="45.54454" lon="2.80147">
        <ele>1666</ele>
        <time>2021-10-29T22:07:23+02:00</time>
      </trkpt>
      <trkpt lat="45.54443" lon="2.80135">
        <ele>1665</ele>
        <time>2021-10-29T22:07:28+02:00</time>
      </trkpt>
      <trkpt lat="45.54436" lon="2.80134">
        <ele>1665</ele>
        <time>2021-10-29T22:07:33+02:00</time>
      </trkpt>
      <trkpt lat="45.54426" lon="2.80133">
        <ele>1666</ele>
        <time>2021-10-29T22:07:38+02:00</time>
      </trkpt>
      <trkpt lat="45.54421" lon="2.80138">
        <ele>1667</ele>
        <time>2021-10-29T22:07:43+02:00</time>
      </trkpt>
      <trkpt lat="45.54417" lon="2.80154">
        <ele>1669</ele>
        <time>2021-10-29T22:07:48+02:00</time>
      </trkpt>
      <trkpt lat="45.54384" lon="2.80168">
        <ele>1676</ele>
        <time>2021-10-29T22:07:53+02:00</time>
      </trkpt>
      <trkpt lat="45.54363" lon="2.8017">
        <ele>1678</ele>
        <time>2021-10-29T22:07:58+02:00</time>
      </trkpt>
      <trkpt lat="45.54343" lon="2.80174">
        <ele>1680</ele>
        <time>2021-10-29T22:08:03+02:00</time>
      </trkpt>
      <trkpt lat="45.54326" lon="2.80176">
        <ele>1681</ele>
        <time>2021-10-29T22:08:08+02:00</time>
      </trkpt>
      <trkpt lat="45.54313" lon="2.8018">
        <ele>1678</ele>
        <time>2021-10-29T22:08:13+02:00</time>
      </trkpt>
      <trkpt lat="45.54299" lon="2.80183">
        <ele>1676</ele>
        <time>2021-10-29T22:08:18+02:00</time>
      </trkpt>
      <trkpt lat="45.54281" lon="2.80183">
        <ele>1675</ele>
        <time>2021-10-29T22:08:23+02:00</time>
      </trkpt>
      <trkpt lat="45.54266" lon="2.80175">
        <ele>1677</ele>
        <time>2021-10-29T22:08:28+02:00</time>
      </trkpt>
      <trkpt lat="45.54244" lon="2.80159">
        <ele>1678</ele>
        <time>2021-10-29T22:08:33+02:00</time>
      </trkpt>
      <trkpt lat="45.54219" lon="2.80149">
        <ele>1671</ele>
        <time>2021-10-29T22:08:38+02:00</time>
      </trkpt>
      <trkpt lat="45.54197" lon="2.80137">
        <ele>1666</ele>
        <time>2021-10-29T22:08:43+02:00</time>
      </trkpt>
      <trkpt lat="45.54179" lon="2.80131">
        <ele>1663</ele>
        <time>2021-10-29T22:08:48+02:00</time>
      </trkpt>
      <trkpt lat="45.54158" lon="2.80114">
        <ele>1659</ele>
        <time>2021-10-29T22:08:53+02:00</time>
      </trkpt>
      <trkpt lat="45.54134" lon="2.80103">
        <ele>1655</ele>
        <time>2021-10-29T22:08:58+02:00</time>
      </trkpt>
      <trkpt lat="45.54112" lon="2.80097">
        <ele>1651</ele>
        <time>2021-10-29T22:09:03+02:00</time>
      </trkpt>
      <trkpt lat="45.54088" lon="2.80099">
        <ele>1645</ele>
        <time>2021-10-29T22:09:08+02:00</time>
      </trkpt>
      <trkpt lat="45.54067" lon="2.80118">
        <ele>1641</ele>
        <time>2021-10-29T22:09:13+02:00</time>
      </trkpt>
      <trkpt lat="45.54028" lon="2.8013">
        <ele>1643</ele>
        <time>2021-10-29T22:09:18+02:00</time>
      </trkpt>
      <trkpt lat="45.53998" lon="2.80134">
        <ele>1646</ele>
        <time>2021-10-29T22:09:23+02:00</time>
      </trkpt>
      <trkpt lat="45.53976" lon="2.80134">
        <ele>1650</ele>
        <time>2021-10-29T22:09:28+02:00</time>
      </trkpt>
      <trkpt lat="45.53938" lon="2.80125">
        <ele>1656</ele>
        <time>2021-10-29T22:09:33+02:00</time>
      </trkpt>
      <trkpt lat="45.53919" lon="2.80115">
        <ele>1658</ele>
        <time>2021-10-29T22:09:38+02:00</time>
      </trkpt>
      <trkpt lat="45.5387" lon="2.80106">
        <ele>1664</ele>
        <time>2021-10-29T22:09:43+02:00</time>
      </trkpt>
      <trkpt lat="45.53835" lon="2.80099">
        <ele>1669</ele>
        <time>2021-10-29T22:09:48+02:00</time>
      </trkpt>
      <trkpt lat="45.53799" lon="2.80095">
        <ele>1668</ele>
        <time>2021-10-29T22:09:53+02:00</time>
      </trkpt>
      <trkpt lat="45.53773" lon="2.8009">
        <ele>1669</ele>
        <time>2021-10-29T22:09:58+02:00</time>
      </trkpt>
      <trkpt lat="45.53758" lon="2.80084">
        <ele>1670</ele>
        <time>2021-10-29T22:10:03+02:00</time>
      </trkpt>
      <trkpt lat="45.53746" lon="2.80083">
        <ele>1671</ele>
        <time>2021-10-29T22:10:08+02:00</time>
      </trkpt>
      <trkpt lat="45.53716" lon="2.80071">
        <ele>1667</ele>
        <time>2021-10-29T22:10:13+02:00</time>
      </trkpt>
      <trkpt lat="45.53682" lon="2.80047">
        <ele>1667</ele>
        <time>2021-10-29T22:10:18+02:00</time>
      </trkpt>
      <trkpt lat="45.53653" lon="2.80031">
        <ele>1669</ele>
        <time>2021-10-29T22:10:23+02:00</time>
      </trkpt>
      <trkpt lat="45.5363" lon="2.8002">
        <ele>1669</ele>
        <time>2021-10-29T22:10:28+02:00</time>
      </trkpt>
      <trkpt lat="45.53611" lon="2.80014">
        <ele>1670</ele>
        <time>2021-10-29T22:10:33+02:00</time>
      </trkpt>
      <trkpt lat="45.53584" lon="2.80008">
        <ele>1670</ele>
        <time>2021-10-29T22:10:38+02:00</time>
      </trkpt>
      <trkpt lat="45.53567" lon="2.79993">
        <ele>1672</ele>
        <time>2021-10-29T22:10:43+02:00</time>
      </trkpt>
      <trkpt lat="45.5355" lon="2.7999">
        <ele>1671</ele>
        <time>2021-10-29T22:10:48+02:00</time>
      </trkpt>
      <trkpt lat="45.5352" lon="2.79971">
        <ele>1670</ele>
        <time>2021-10-29T22:10:53+02:00</time>
      </trkpt>
      <trkpt lat="45.53508" lon="2.79966">
        <ele>1670</ele>
        <time>2021-10-29T22:10:58+02:00</time>
      </trkpt>
      <trkpt lat="45.53498" lon="2.79971">
        <ele>1671</ele>
        <time>2021-10-29T22:11:03+02:00</time>
      </trkpt>
      <trkpt lat="45.53474" lon="2.79976">
        <ele>1676</ele>
        <time>2021-10-29T22:11:08+02:00</time>
      </trkpt>
      <trkpt lat="45.5345" lon="2.79962">
        <ele>1681</ele>
        <time>2021-10-29T22:11:13+02:00</time>
      </trkpt>
      <trkpt lat="45.5343" lon="2.79954">
        <ele>1686</ele>
        <time>2021-10-29T22:11:18+02:00</time>
      </trkpt>
      <trkpt lat="45.5341" lon="2.79952">
        <ele>1690</ele>
        <time>2021-10-29T22:11:23+02:00</time>
      </trkpt>
      <trkpt lat="45.53395" lon="2.79969">
        <ele>1695</ele>
        <time>2021-10-29T22:11:28+02:00</time>
      </trkpt>
      <trkpt lat="45.53382" lon="2.79978">
        <ele>1701</ele>
        <time>2021-10-29T22:11:33+02:00</time>
      </trkpt>
      <trkpt lat="45.53361" lon="2.79976">
        <ele>1707</ele>
        <time>2021-10-29T22:11:38+02:00</time>
      </trkpt>
      <trkpt lat="45.5334" lon="2.79978">
        <ele>1715</ele>
        <time>2021-10-29T22:11:43+02:00</time>
      </trkpt>
      <trkpt lat="45.53326" lon="2.79985">
        <ele>1717</ele>
        <time>2021-10-29T22:11:48+02:00</time>
      </trkpt>
      <trkpt lat="45.53319" lon="2.7999">
        <ele>1718</ele>
        <time>2021-10-29T22:11:53+02:00</time>
      </trkpt>
      <trkpt lat="45.53314" lon="2.80004">
        <ele>1718</ele>
        <time>2021-10-29T22:11:58+02:00</time>
      </trkpt>
      <trkpt lat="45.53302" lon="2.80032">
        <ele>1712</ele>
        <time>2021-10-29T22:12:03+02:00</time>
      </trkpt>
      <trkpt lat="45.53298" lon="2.80048">
        <ele>1710</ele>
        <time>2021-10-29T22:12:08+02:00</time>
      </trkpt>
      <trkpt lat="45.53295" lon="2.80063">
        <ele>1708</ele>
        <time>2021-10-29T22:12:13+02:00</time>
      </trkpt>
      <trkpt lat="45.53293" lon="2.80086">
        <ele>1705</ele>
        <time>2021-10-29T22:12:18+02:00</time>
      </trkpt>
      <trkpt lat="45.53285" lon="2.80114">
        <ele>1699</ele>
        <time>2021-10-29T22:12:23+02:00</time>
      </trkpt>
      <trkpt lat="45.53284" lon="2.8013">
        <ele>1696</ele>
        <time>2021-10-29T22:12:28+02:00</time>
      </trkpt>
      <trkpt lat="45.5328" lon="2.8016">
        <ele>1692</ele>
        <time>2021-10-29T22:12:33+02:00</time>
      </trkpt>
      <trkpt lat="45.53276" lon="2.80176">
        <ele>1691</ele>
        <time>2021-10-29T22:12:38+02:00</time>
      </trkpt>
      <trkpt lat="45.53258" lon="2.80208">
        <ele>1694</ele>
        <time>2021-10-29T22:12:43+02:00</time>
      </trkpt>
      <trkpt lat="45.53237" lon="2.80272">
        <ele>1691</ele>
        <time>2021-10-29T22:12:48+02:00</time>
      </trkpt>
      <trkpt lat="45.53224" lon="2.80297">
        <ele>1688</ele>
        <time>2021-10-29T22:12:53+02:00</time>
      </trkpt>
      <trkpt lat="45.53214" lon="2.80316">
        <ele>1688</ele>
        <time>2021-10-29T22:12:58+02:00</time>
      </trkpt>
      <trkpt lat="45.53208" lon="2.80328">
        <ele>1688</ele>
        <time>2021-10-29T22:13:03+02:00</time>
      </trkpt>
      <trkpt lat="45.53204" lon="2.80363">
        <ele>1689</ele>
        <time>2021-10-29T22:13:08+02:00</time>
      </trkpt>
      <trkpt lat="45.53192" lon="2.80391">
        <ele>1692</ele>
        <time>2021-10-29T22:13:13+02:00</time>
      </trkpt>
      <trkpt lat="45.53187" lon="2.80408">
        <ele>1693</ele>
        <time>2021-10-29T22:13:18+02:00</time>
      </trkpt>
      <trkpt lat="45.53183" lon="2.80421">
        <ele>1695</ele>
        <time>2021-10-29T22:13:23+02:00</time>
      </trkpt>
      <trkpt lat="45.5318" lon="2.80437">
        <ele>1699</ele>
        <time>2021-10-29T22:13:28+02:00</time>
      </trkpt>
      <trkpt lat="45.53179" lon="2.80457">
        <ele>1702</ele>
        <time>2021-10-29T22:13:33+02:00</time>
      </trkpt>
      <trkpt lat="45.53176" lon="2.80468">
        <ele>1704</ele>
        <time>2021-10-29T22:13:38+02:00</time>
      </trkpt>
      <trkpt lat="45.53174" lon="2.80489">
        <ele>1707</ele>
        <time>2021-10-29T22:13:43+02:00</time>
      </trkpt>
      <trkpt lat="45.53156" lon="2.80524">
        <ele>1708</ele>
        <time>2021-10-29T22:13:48+02:00</time>
      </trkpt>
      <trkpt lat="45.53151" lon="2.80614">
        <ele>1722</ele>
        <time>2021-10-29T22:13:53+02:00</time>
      </trkpt>
      <trkpt lat="45.53148" lon="2.80679">
        <ele>1730</ele>
        <time>2021-10-29T22:13:58+02:00</time>
      </trkpt>
      <trkpt lat="45.53146" lon="2.80709">
        <ele>1731</ele>
        <time>2021-10-29T22:14:03+02:00</time>
      </trkpt>
      <trkpt lat="45.53145" lon="2.80726">
        <ele>1732</ele>
        <time>2021-10-29T22:14:08+02:00</time>
      </trkpt>
      <trkpt lat="45.53141" lon="2.80744">
        <ele>1733</ele>
        <time>2021-10-29T22:14:13+02:00</time>
      </trkpt>
      <trkpt lat="45.53107" lon="2.80754">
        <ele>1735</ele>
        <time>2021-10-29T22:14:18+02:00</time>
      </trkpt>
      <trkpt lat="45.531" lon="2.80776">
        <ele>1740</ele>
        <time>2021-10-29T22:14:23+02:00</time>
      </trkpt>
      <trkpt lat="45.53097" lon="2.80798">
        <ele>1745</ele>
        <time>2021-10-29T22:14:28+02:00</time>
      </trkpt>
      <trkpt lat="45.53093" lon="2.80816">
        <ele>1750</ele>
        <time>2021-10-29T22:14:33+02:00</time>
      </trkpt>
      <trkpt lat="45.5309" lon="2.80838">
        <ele>1756</ele>
        <time>2021-10-29T22:14:38+02:00</time>
      </trkpt>
      <trkpt lat="45.53088" lon="2.80852">
        <ele>1758</ele>
        <time>2021-10-29T22:14:43+02:00</time>
      </trkpt>
      <trkpt lat="45.53089" lon="2.8087">
        <ele>1760</ele>
        <time>2021-10-29T22:14:48+02:00</time>
      </trkpt>
      <trkpt lat="45.5308" lon="2.80885">
        <ele>1763</ele>
        <time>2021-10-29T22:14:53+02:00</time>
      </trkpt>
      <trkpt lat="45.53064" lon="2.80909">
        <ele>1761</ele>
        <time>2021-10-29T22:14:58+02:00</time>
      </trkpt>
      <trkpt lat="45.53055" lon="2.80935">
        <ele>1762</ele>
        <time>2021-10-29T22:15:03+02:00</time>
      </trkpt>
      <trkpt lat="45.53047" lon="2.80953">
        <ele>1764</ele>
        <time>2021-10-29T22:15:08+02:00</time>
      </trkpt>
      <trkpt lat="45.53029" lon="2.80976">
        <ele>1766</ele>
        <time>2021-10-29T22:15:13+02:00</time>
      </trkpt>
      <trkpt lat="45.53025" lon="2.80992">
        <ele>1769</ele>
        <time>2021-10-29T22:15:18+02:00</time>
      </trkpt>
      <trkpt lat="45.53032" lon="2.81012">
        <ele>1774</ele>
        <time>2021-10-29T22:15:23+02:00</time>
      </trkpt>
      <trkpt lat="45.53038" lon="2.81039">
        <ele>1779</ele>
        <time>2021-10-29T22:15:28+02:00</time>
      </trkpt>
      <trkpt lat="45.53045" lon="2.81058">
        <ele>1782</ele>
        <time>2021-10-29T22:15:33+02:00</time>
      </trkpt>
      <trkpt lat="45.53046" lon="2.81083">
        <ele>1786</ele>
        <time>2021-10-29T22:15:38+02:00</time>
      </trkpt>
      <trkpt lat="45.53041" lon="2.81103">
        <ele>1789</ele>
        <time>2021-10-29T22:15:43+02:00</time>
      </trkpt>
      <trkpt lat="45.53042" lon="2.81113">
        <ele>1791</ele>
        <time>2021-10-29T22:15:48+02:00</time>
      </trkpt>
      <trkpt lat="45.5304" lon="2.81126">
        <ele>1793</ele>
        <time>2021-10-29T22:15:53+02:00</time>
      </trkpt>
      <trkpt lat="45.53032" lon="2.81149">
        <ele>1797</ele>
        <time>2021-10-29T22:15:58+02:00</time>
      </trkpt>
      <trkpt lat="45.52998" lon="2.81168">
        <ele>1801</ele>
        <time>2021-10-29T22:16:03+02:00</time>
      </trkpt>
      <trkpt lat="45.52983" lon="2.81196">
        <ele>1799</ele>
        <time>2021-10-29T22:16:08+02:00</time>
      </trkpt>
      <trkpt lat="45.52957" lon="2.81237">
        <ele>1804</ele>
        <time>2021-10-29T22:16:13+02:00</time>
      </trkpt>
      <trkpt lat="45.52939" lon="2.81267">
        <ele>1811</ele>
        <time>2021-10-29T22:16:18+02:00</time>
      </trkpt>
      <trkpt lat="45.52927" lon="2.8129">
        <ele>1818</ele>
        <time>2021-10-29T22:16:23+02:00</time>
      </trkpt>
      <trkpt lat="45.52894" lon="2.81311">
        <ele>1831</ele>
        <time>2021-10-29T22:16:28+02:00</time>
      </trkpt>
      <trkpt lat="45.52869" lon="2.8134">
        <ele>1841</ele>
        <time>2021-10-29T22:16:33+02:00</time>
      </trkpt>
      <trkpt lat="45.52838" lon="2.81372">
        <ele>1850</ele>
        <time>2021-10-29T22:16:38+02:00</time>
      </trkpt>
      <trkpt lat="45.52827" lon="2.81381">
        <ele>1851</ele>
        <time>2021-10-29T22:16:43+02:00</time>
      </trkpt>
      <trkpt lat="45.52817" lon="2.81395">
        <ele>1850</ele>
        <time>2021-10-29T22:16:48+02:00</time>
      </trkpt>
      <trkpt lat="45.52804" lon="2.8141">
        <ele>1848</ele>
        <time>2021-10-29T22:16:53+02:00</time>
      </trkpt>
      <trkpt lat="45.52799" lon="2.81426">
        <ele>1845</ele>
        <time>2021-10-29T22:16:58+02:00</time>
      </trkpt>
      <trkpt lat="45.52805" lon="2.81451">
        <ele>1842</ele>
        <time>2021-10-29T22:17:03+02:00</time>
      </trkpt>
      <trkpt lat="45.52794" lon="2.8146">
        <ele>1838</ele>
        <time>2021-10-29T22:17:08+02:00</time>
      </trkpt>
      <trkpt lat="45.52779" lon="2.81457">
        <ele>1835</ele>
        <time>2021-10-29T22:17:13+02:00</time>
      </trkpt>
      <trkpt lat="45.52773" lon="2.81463">
        <ele>1833</ele>
        <time>2021-10-29T22:17:18+02:00</time>
      </trkpt>
      <trkpt lat="45.52776" lon="2.81482">
        <ele>1830</ele>
        <time>2021-10-29T22:17:23+02:00</time>
      </trkpt>
      <trkpt lat="45.52781" lon="2.81504">
        <ele>1827</ele>
        <time>2021-10-29T22:17:28+02:00</time>
      </trkpt>
      <trkpt lat="45.5276" lon="2.81492">
        <ele>1825</ele>
        <time>2021-10-29T22:17:33+02:00</time>
      </trkpt>
      <trkpt lat="45.52757" lon="2.81506">
        <ele>1822</ele>
        <time>2021-10-29T22:17:38+02:00</time>
      </trkpt>
      <trkpt lat="45.52767" lon="2.81543">
        <ele>1812</ele>
        <time>2021-10-29T22:17:43+02:00</time>
      </trkpt>
      <trkpt lat="45.52771" lon="2.81585">
        <ele>1798</ele>
        <time>2021-10-29T22:17:48+02:00</time>
      </trkpt>
      <trkpt lat="45.52778" lon="2.81601">
        <ele>1793</ele>
        <time>2021-10-29T22:17:53+02:00</time>
      </trkpt>
      <trkpt lat="45.52758" lon="2.81612">
        <ele>1793</ele>
        <time>2021-10-29T22:17:58+02:00</time>
      </trkpt>
      <trkpt lat="45.52748" lon="2.81637">
        <ele>1788</ele>
        <time>2021-10-29T22:18:03+02:00</time>
      </trkpt>
      <trkpt lat="45.52754" lon="2.81672">
        <ele>1781</ele>
        <time>2021-10-29T22:18:08+02:00</time>
      </trkpt>
      <trkpt lat="45.52746" lon="2.81702">
        <ele>1778</ele>
        <time>2021-10-29T22:18:13+02:00</time>
      </trkpt>
      <trkpt lat="45.52736" lon="2.81712">
        <ele>1774</ele>
        <time>2021-10-29T22:18:18+02:00</time>
      </trkpt>
      <trkpt lat="45.5273" lon="2.8173">
        <ele>1772</ele>
        <time>2021-10-29T22:18:23+02:00</time>
      </trkpt>
      <trkpt lat="45.52732" lon="2.81749">
        <ele>1772</ele>
        <time>2021-10-29T22:18:28+02:00</time>
      </trkpt>
      <trkpt lat="45.52734" lon="2.81767">
        <ele>1772</ele>
        <time>2021-10-29T22:18:33+02:00</time>
      </trkpt>
      <trkpt lat="45.52739" lon="2.81801">
        <ele>1773</ele>
        <time>2021-10-29T22:18:38+02:00</time>
      </trkpt>
      <trkpt lat="45.5274" lon="2.8183">
        <ele>1772</ele>
        <time>2021-10-29T22:18:43+02:00</time>
      </trkpt>
      <trkpt lat="45.52741" lon="2.81856">
        <ele>1771</ele>
        <time>2021-10-29T22:18:48+02:00</time>
      </trkpt>
      <trkpt lat="45.52742" lon="2.81911">
        <ele>1769</ele>
        <time>2021-10-29T22:18:53+02:00</time>
      </trkpt>
      <trkpt lat="45.52737" lon="2.81951">
        <ele>1766</ele>
        <time>2021-10-29T22:18:58+02:00</time>
      </trkpt>
      <trkpt lat="45.52743" lon="2.81958">
        <ele>1764</ele>
        <time>2021-10-29T22:19:03+02:00</time>
      </trkpt>
      <trkpt lat="45.52762" lon="2.8194">
        <ele>1759</ele>
        <time>2021-10-29T22:19:08+02:00</time>
      </trkpt>
      <trkpt lat="45.52777" lon="2.81923">
        <ele>1756</ele>
        <time>2021-10-29T22:19:13+02:00</time>
      </trkpt>
      <trkpt lat="45.52781" lon="2.81954">
        <ele>1750</ele>
        <time>2021-10-29T22:19:18+02:00</time>
      </trkpt>
      <trkpt lat="45.52785" lon="2.81992">
        <ele>1744</ele>
        <time>2021-10-29T22:19:23+02:00</time>
      </trkpt>
      <trkpt lat="45.52799" lon="2.82058">
        <ele>1734</ele>
        <time>2021-10-29T22:19:28+02:00</time>
      </trkpt>
      <trkpt lat="45.52806" lon="2.82093">
        <ele>1730</ele>
        <time>2021-10-29T22:19:33+02:00</time>
      </trkpt>
      <trkpt lat="45.52811" lon="2.82113">
        <ele>1729</ele>
        <time>2021-10-29T22:19:38+02:00</time>
      </trkpt>
      <trkpt lat="45.52822" lon="2.82119">
        <ele>1727</ele>
        <time>2021-10-29T22:19:43+02:00</time>
      </trkpt>
      <trkpt lat="45.52827" lon="2.82129">
        <ele>1726</ele>
        <time>2021-10-29T22:19:48+02:00</time>
      </trkpt>
      <trkpt lat="45.52832" lon="2.82148">
        <ele>1727</ele>
        <time>2021-10-29T22:19:53+02:00</time>
      </trkpt>
      <trkpt lat="45.52847" lon="2.82153">
        <ele>1728</ele>
        <time>2021-10-29T22:19:58+02:00</time>
      </trkpt>
      <trkpt lat="45.52854" lon="2.82175">
        <ele>1730</ele>
        <time>2021-10-29T22:20:03+02:00</time>
      </trkpt>
      <trkpt lat="45.52854" lon="2.82211">
        <ele>1729</ele>
        <time>2021-10-29T22:20:08+02:00</time>
      </trkpt>
      <trkpt lat="45.52854" lon="2.82249">
        <ele>1729</ele>
        <time>2021-10-29T22:20:13+02:00</time>
      </trkpt>
      <trkpt lat="45.52866" lon="2.82279">
        <ele>1728</ele>
        <time>2021-10-29T22:20:18+02:00</time>
      </trkpt>
      <trkpt lat="45.52875" lon="2.82292">
        <ele>1728</ele>
        <time>2021-10-29T22:20:23+02:00</time>
      </trkpt>
      <trkpt lat="45.52895" lon="2.82339">
        <ele>1725</ele>
        <time>2021-10-29T22:20:28+02:00</time>
      </trkpt>
      <trkpt lat="45.52908" lon="2.82374">
        <ele>1722</ele>
        <time>2021-10-29T22:20:33+02:00</time>
      </trkpt>
      <trkpt lat="45.52917" lon="2.82404">
        <ele>1719</ele>
        <time>2021-10-29T22:20:38+02:00</time>
      </trkpt>
      <trkpt lat="45.5293" lon="2.82409">
        <ele>1720</ele>
        <time>2021-10-29T22:20:43+02:00</time>
      </trkpt>
      <trkpt lat="45.52956" lon="2.82412">
        <ele>1724</ele>
        <time>2021-10-29T22:20:48+02:00</time>
      </trkpt>
      <trkpt lat="45.52969" lon="2.82415">
        <ele>1725</ele>
        <time>2021-10-29T22:20:53+02:00</time>
      </trkpt>
      <trkpt lat="45.52984" lon="2.82425">
        <ele>1726</ele>
        <time>2021-10-29T22:20:58+02:00</time>
      </trkpt>
      <trkpt lat="45.53001" lon="2.82437">
        <ele>1726</ele>
        <time>2021-10-29T22:21:03+02:00</time>
      </trkpt>
      <trkpt lat="45.53012" lon="2.8245">
        <ele>1723</ele>
        <time>2021-10-29T22:21:08+02:00</time>
      </trkpt>
      <trkpt lat="45.53018" lon="2.82464">
        <ele>1720</ele>
        <time>2021-10-29T22:21:13+02:00</time>
      </trkpt>
      <trkpt lat="45.53024" lon="2.82494">
        <ele>1716</ele>
        <time>2021-10-29T22:21:18+02:00</time>
      </trkpt>
      <trkpt lat="45.53038" lon="2.82526">
        <ele>1707</ele>
        <time>2021-10-29T22:21:23+02:00</time>
      </trkpt>
      <trkpt lat="45.53045" lon="2.8253">
        <ele>1706</ele>
        <time>2021-10-29T22:21:28+02:00</time>
      </trkpt>
      <trkpt lat="45.53051" lon="2.82528">
        <ele>1707</ele>
        <time>2021-10-29T22:21:33+02:00</time>
      </trkpt>
      <trkpt lat="45.53067" lon="2.82523">
        <ele>1711</ele>
        <time>2021-10-29T22:21:38+02:00</time>
      </trkpt>
      <trkpt lat="45.53087" lon="2.82519">
        <ele>1713</ele>
        <time>2021-10-29T22:21:43+02:00</time>
      </trkpt>
      <trkpt lat="45.53101" lon="2.82516">
        <ele>1713</ele>
        <time>2021-10-29T22:21:48+02:00</time>
      </trkpt>
      <trkpt lat="45.53116" lon="2.82511">
        <ele>1712</ele>
        <time>2021-10-29T22:21:53+02:00</time>
      </trkpt>
      <trkpt lat="45.53134" lon="2.82515">
        <ele>1709</ele>
        <time>2021-10-29T22:21:58+02:00</time>
      </trkpt>
      <trkpt lat="45.53152" lon="2.82509">
        <ele>1707</ele>
        <time>2021-10-29T22:22:03+02:00</time>
      </trkpt>
      <trkpt lat="45.53161" lon="2.82512">
        <ele>1705</ele>
        <time>2021-10-29T22:22:08+02:00</time>
      </trkpt>
      <trkpt lat="45.5317" lon="2.8252">
        <ele>1703</ele>
        <time>2021-10-29T22:22:13+02:00</time>
      </trkpt>
      <trkpt lat="45.53183" lon="2.82529">
        <ele>1701</ele>
        <time>2021-10-29T22:22:18+02:00</time>
      </trkpt>
      <trkpt lat="45.53197" lon="2.82538">
        <ele>1699</ele>
        <time>2021-10-29T22:22:23+02:00</time>
      </trkpt>
      <trkpt lat="45.53208" lon="2.82543">
        <ele>1699</ele>
        <time>2021-10-29T22:22:28+02:00</time>
      </trkpt>
      <trkpt lat="45.53216" lon="2.8255">
        <ele>1699</ele>
        <time>2021-10-29T22:22:33+02:00</time>
      </trkpt>
      <trkpt lat="45.53227" lon="2.82563">
        <ele>1700</ele>
        <time>2021-10-29T22:22:38+02:00</time>
      </trkpt>
      <trkpt lat="45.53239" lon="2.82574">
        <ele>1702</ele>
        <time>2021-10-29T22:22:43+02:00</time>
      </trkpt>
      <trkpt lat="45.53246" lon="2.82582">
        <ele>1704</ele>
        <time>2021-10-29T22:22:48+02:00</time>
      </trkpt>
      <trkpt lat="45.53258" lon="2.82589">
        <ele>1703</ele>
        <time>2021-10-29T22:22:53+02:00</time>
      </trkpt>
      <trkpt lat="45.53268" lon="2.82599">
        <ele>1701</ele>
        <time>2021-10-29T22:22:58+02:00</time>
      </trkpt>
      <trkpt lat="45.53275" lon="2.82606">
        <ele>1700</ele>
        <time>2021-10-29T22:23:03+02:00</time>
      </trkpt>
      <trkpt lat="45.53282" lon="2.82609">
        <ele>1700</ele>
        <time>2021-10-29T22:23:08+02:00</time>
      </trkpt>
      <trkpt lat="45.53296" lon="2.82613">
        <ele>1701</ele>
        <time>2021-10-29T22:23:13+02:00</time>
      </trkpt>
      <trkpt lat="45.53303" lon="2.82618">
        <ele>1702</ele>
        <time>2021-10-29T22:23:18+02:00</time>
      </trkpt>
      <trkpt lat="45.53312" lon="2.82621">
        <ele>1703</ele>
        <time>2021-10-29T22:23:23+02:00</time>
      </trkpt>
      <trkpt lat="45.53331" lon="2.82621">
        <ele>1706</ele>
        <time>2021-10-29T22:23:28+02:00</time>
      </trkpt>
      <trkpt lat="45.53338" lon="2.82627">
        <ele>1706</ele>
        <time>2021-10-29T22:23:33+02:00</time>
      </trkpt>
      <trkpt lat="45.53352" lon="2.82629">
        <ele>1703</ele>
        <time>2021-10-29T22:23:38+02:00</time>
      </trkpt>
      <trkpt lat="45.53357" lon="2.82636">
        <ele>1703</ele>
        <time>2021-10-29T22:23:43+02:00</time>
      </trkpt>
      <trkpt lat="45.53365" lon="2.82643">
        <ele>1702</ele>
        <time>2021-10-29T22:23:48+02:00</time>
      </trkpt>
      <trkpt lat="45.53369" lon="2.82663">
        <ele>1705</ele>
        <time>2021-10-29T22:23:53+02:00</time>
      </trkpt>
      <trkpt lat="45.53373" lon="2.82679">
        <ele>1703</ele>
        <time>2021-10-29T22:23:58+02:00</time>
      </trkpt>
      <trkpt lat="45.53376" lon="2.82693">
        <ele>1700</ele>
        <time>2021-10-29T22:24:03+02:00</time>
      </trkpt>
      <trkpt lat="45.5339" lon="2.82713">
        <ele>1698</ele>
        <time>2021-10-29T22:24:08+02:00</time>
      </trkpt>
      <trkpt lat="45.53406" lon="2.8273">
        <ele>1698</ele>
        <time>2021-10-29T22:24:13+02:00</time>
      </trkpt>
      <trkpt lat="45.53414" lon="2.8274">
        <ele>1699</ele>
        <time>2021-10-29T22:24:18+02:00</time>
      </trkpt>
      <trkpt lat="45.53425" lon="2.82752">
        <ele>1701</ele>
        <time>2021-10-29T22:24:23+02:00</time>
      </trkpt>
      <trkpt lat="45.53438" lon="2.82756">
        <ele>1702</ele>
        <time>2021-10-29T22:24:28+02:00</time>
      </trkpt>
      <trkpt lat="45.53461" lon="2.82765">
        <ele>1705</ele>
        <time>2021-10-29T22:24:33+02:00</time>
      </trkpt>
      <trkpt lat="45.53494" lon="2.82766">
        <ele>1711</ele>
        <time>2021-10-29T22:24:38+02:00</time>
      </trkpt>
      <trkpt lat="45.53516" lon="2.8276">
        <ele>1716</ele>
        <time>2021-10-29T22:24:43+02:00</time>
      </trkpt>
      <trkpt lat="45.5354" lon="2.82758">
        <ele>1722</ele>
        <time>2021-10-29T22:24:48+02:00</time>
      </trkpt>
      <trkpt lat="45.53556" lon="2.82753">
        <ele>1725</ele>
        <time>2021-10-29T22:24:53+02:00</time>
      </trkpt>
      <trkpt lat="45.53568" lon="2.82757">
        <ele>1729</ele>
        <time>2021-10-29T22:24:58+02:00</time>
      </trkpt>
      <trkpt lat="45.5358" lon="2.82759">
        <ele>1733</ele>
        <time>2021-10-29T22:25:03+02:00</time>
      </trkpt>
      <trkpt lat="45.53592" lon="2.82759">
        <ele>1734</ele>
        <time>2021-10-29T22:25:08+02:00</time>
      </trkpt>
      <trkpt lat="45.53603" lon="2.82754">
        <ele>1734</ele>
        <time>2021-10-29T22:25:13+02:00</time>
      </trkpt>
      <trkpt lat="45.53621" lon="2.82755">
        <ele>1736</ele>
        <time>2021-10-29T22:25:18+02:00</time>
      </trkpt>
      <trkpt lat="45.5363" lon="2.82759">
        <ele>1738</ele>
        <time>2021-10-29T22:25:23+02:00</time>
      </trkpt>
      <trkpt lat="45.53642" lon="2.82761">
        <ele>1739</ele>
        <time>2021-10-29T22:25:28+02:00</time>
      </trkpt>
      <trkpt lat="45.53654" lon="2.82757">
        <ele>1739</ele>
        <time>2021-10-29T22:25:33+02:00</time>
      </trkpt>
      <trkpt lat="45.53663" lon="2.82758">
        <ele>1740</ele>
        <time>2021-10-29T22:25:38+02:00</time>
      </trkpt>
      <trkpt lat="45.53673" lon="2.82767">
        <ele>1742</ele>
        <time>2021-10-29T22:25:43+02:00</time>
      </trkpt>
      <trkpt lat="45.53682" lon="2.82775">
        <ele>1744</ele>
        <time>2021-10-29T22:25:48+02:00</time>
      </trkpt>
      <trkpt lat="45.537" lon="2.82792">
        <ele>1745</ele>
        <time>2021-10-29T22:25:53+02:00</time>
      </trkpt>
      <trkpt lat="45.53715" lon="2.8281">
        <ele>1746</ele>
        <time>2021-10-29T22:25:58+02:00</time>
      </trkpt>
      <trkpt lat="45.53738" lon="2.82852">
        <ele>1746</ele>
        <time>2021-10-29T22:26:03+02:00</time>
      </trkpt>
      <trkpt lat="45.53756" lon="2.82891">
        <ele>1742</ele>
        <time>2021-10-29T22:26:08+02:00</time>
      </trkpt>
      <trkpt lat="45.53765" lon="2.8293">
        <ele>1740</ele>
        <time>2021-10-29T22:26:13+02:00</time>
      </trkpt>
      <trkpt lat="45.53782" lon="2.82972">
        <ele>1736</ele>
        <time>2021-10-29T22:26:18+02:00</time>
      </trkpt>
      <trkpt lat="45.53799" lon="2.83005">
        <ele>1733</ele>
        <time>2021-10-29T22:26:23+02:00</time>
      </trkpt>
      <trkpt lat="45.5381" lon="2.83022">
        <ele>1731</ele>
        <time>2021-10-29T22:26:28+02:00</time>
      </trkpt>
      <trkpt lat="45.53828" lon="2.83032">
        <ele>1729</ele>
        <time>2021-10-29T22:26:33+02:00</time>
      </trkpt>
      <trkpt lat="45.53837" lon="2.83041">
        <ele>1728</ele>
        <time>2021-10-29T22:26:38+02:00</time>
      </trkpt>
      <trkpt lat="45.53846" lon="2.83054">
        <ele>1727</ele>
        <time>2021-10-29T22:26:43+02:00</time>
      </trkpt>
      <trkpt lat="45.53858" lon="2.83078">
        <ele>1728</ele>
        <time>2021-10-29T22:26:48+02:00</time>
      </trkpt>
      <trkpt lat="45.53873" lon="2.83091">
        <ele>1726</ele>
        <time>2021-10-29T22:26:53+02:00</time>
      </trkpt>
      <trkpt lat="45.53897" lon="2.83104">
        <ele>1724</ele>
        <time>2021-10-29T22:26:58+02:00</time>
      </trkpt>
      <trkpt lat="45.5393" lon="2.83133">
        <ele>1727</ele>
        <time>2021-10-29T22:27:03+02:00</time>
      </trkpt>
      <trkpt lat="45.53947" lon="2.83144">
        <ele>1730</ele>
        <time>2021-10-29T22:27:08+02:00</time>
      </trkpt>
      <trkpt lat="45.53976" lon="2.83151">
        <ele>1737</ele>
        <time>2021-10-29T22:27:13+02:00</time>
      </trkpt>
      <trkpt lat="45.54001" lon="2.83161">
        <ele>1745</ele>
        <time>2021-10-29T22:27:18+02:00</time>
      </trkpt>
      <trkpt lat="45.54019" lon="2.8317">
        <ele>1743</ele>
        <time>2021-10-29T22:27:23+02:00</time>
      </trkpt>
      <trkpt lat="45.54037" lon="2.83176">
        <ele>1741</ele>
        <time>2021-10-29T22:27:28+02:00</time>
      </trkpt>
      <trkpt lat="45.54051" lon="2.83186">
        <ele>1739</ele>
        <time>2021-10-29T22:27:33+02:00</time>
      </trkpt>
      <trkpt lat="45.54066" lon="2.83191">
        <ele>1738</ele>
        <time>2021-10-29T22:27:38+02:00</time>
      </trkpt>
      <trkpt lat="45.54082" lon="2.83198">
        <ele>1737</ele>
        <time>2021-10-29T22:27:43+02:00</time>
      </trkpt>
      <trkpt lat="45.54097" lon="2.83202">
        <ele>1732</ele>
        <time>2021-10-29T22:27:48+02:00</time>
      </trkpt>
      <trkpt lat="45.54111" lon="2.83206">
        <ele>1727</ele>
        <time>2021-10-29T22:27:53+02:00</time>
      </trkpt>
      <trkpt lat="45.54127" lon="2.83214">
        <ele>1722</ele>
        <time>2021-10-29T22:27:58+02:00</time>
      </trkpt>
      <trkpt lat="45.54143" lon="2.83218">
        <ele>1717</ele>
        <time>2021-10-29T22:28:03+02:00</time>
      </trkpt>
      <trkpt lat="45.54158" lon="2.8322">
        <ele>1713</ele>
        <time>2021-10-29T22:28:08+02:00</time>
      </trkpt>
      <trkpt lat="45.54182" lon="2.83223">
        <ele>1708</ele>
        <time>2021-10-29T22:28:13+02:00</time>
      </trkpt>
      <trkpt lat="45.54211" lon="2.83229">
        <ele>1705</ele>
        <time>2021-10-29T22:28:18+02:00</time>
      </trkpt>
      <trkpt lat="45.54244" lon="2.83226">
        <ele>1700</ele>
        <time>2021-10-29T22:28:23+02:00</time>
      </trkpt>
      <trkpt lat="45.54254" lon="2.83222">
        <ele>1698</ele>
        <time>2021-10-29T22:28:28+02:00</time>
      </trkpt>
      <trkpt lat="45.54277" lon="2.83226">
        <ele>1696</ele>
        <time>2021-10-29T22:28:33+02:00</time>
      </trkpt>
      <trkpt lat="45.54299" lon="2.83236">
        <ele>1695</ele>
        <time>2021-10-29T22:28:38+02:00</time>
      </trkpt>
      <trkpt lat="45.54312" lon="2.83243">
        <ele>1694</ele>
        <time>2021-10-29T22:28:43+02:00</time>
      </trkpt>
      <trkpt lat="45.54341" lon="2.83253">
        <ele>1693</ele>
        <time>2021-10-29T22:28:48+02:00</time>
      </trkpt>
      <trkpt lat="45.54377" lon="2.83259">
        <ele>1693</ele>
        <time>2021-10-29T22:28:53+02:00</time>
      </trkpt>
      <trkpt lat="45.54409" lon="2.83261">
        <ele>1693</ele>
        <time>2021-10-29T22:28:58+02:00</time>
      </trkpt>
      <trkpt lat="45.54418" lon="2.83263">
        <ele>1692</ele>
        <time>2021-10-29T22:29:03+02:00</time>
      </trkpt>
      <trkpt lat="45.54423" lon="2.83283">
        <ele>1689</ele>
        <time>2021-10-29T22:29:08+02:00</time>
      </trkpt>
      <trkpt lat="45.54432" lon="2.83295">
        <ele>1685</ele>
        <time>2021-10-29T22:29:13+02:00</time>
      </trkpt>
      <trkpt lat="45.54442" lon="2.83303">
        <ele>1682</ele>
        <time>2021-10-29T22:29:18+02:00</time>
      </trkpt>
      <trkpt lat="45.54457" lon="2.83298">
        <ele>1677</ele>
        <time>2021-10-29T22:29:23+02:00</time>
      </trkpt>
      <trkpt lat="45.54462" lon="2.83306">
        <ele>1675</ele>
        <time>2021-10-29T22:29:28+02:00</time>
      </trkpt>
      <trkpt lat="45.54452" lon="2.83323">
        <ele>1678</ele>
        <time>2021-10-29T22:29:33+02:00</time>
      </trkpt>
      <trkpt lat="45.54436" lon="2.83344">
        <ele>1679</ele>
        <time>2021-10-29T22:29:38+02:00</time>
      </trkpt>
      <trkpt lat="45.54455" lon="2.83347">
        <ele>1674</ele>
        <time>2021-10-29T22:29:43+02:00</time>
      </trkpt>
      <trkpt lat="45.54465" lon="2.83349">
        <ele>1671</ele>
        <time>2021-10-29T22:29:48+02:00</time>
      </trkpt>
      <trkpt lat="45.54489" lon="2.83354">
        <ele>1664</ele>
        <time>2021-10-29T22:29:53+02:00</time>
      </trkpt>
      <trkpt lat="45.54513" lon="2.83348">
        <ele>1659</ele>
        <time>2021-10-29T22:29:58+02:00</time>
      </trkpt>
      <trkpt lat="45.54523" lon="2.83334">
        <ele>1659</ele>
        <time>2021-10-29T22:30:03+02:00</time>
      </trkpt>
      <trkpt lat="45.54544" lon="2.83311">
        <ele>1653</ele>
        <time>2021-10-29T22:30:08+02:00</time>
      </trkpt>
      <trkpt lat="45.5455" lon="2.83303">
        <ele>1651</ele>
        <time>2021-10-29T22:30:13+02:00</time>
      </trkpt>
      <trkpt lat="45.5456" lon="2.83298">
        <ele>1649</ele>
        <time>2021-10-29T22:30:18+02:00</time>
      </trkpt>
      <trkpt lat="45.54576" lon="2.83289">
        <ele>1645</ele>
        <time>2021-10-29T22:30:23+02:00</time>
      </trkpt>
      <trkpt lat="45.54591" lon="2.83284">
        <ele>1644</ele>
        <time>2021-10-29T22:30:28+02:00</time>
      </trkpt>
      <trkpt lat="45.54603" lon="2.83266">
        <ele>1647</ele>
        <time>2021-10-29T22:30:33+02:00</time>
      </trkpt>
      <trkpt lat="45.54631" lon="2.8325">
        <ele>1653</ele>
        <time>2021-10-29T22:30:38+02:00</time>
      </trkpt>
      <trkpt lat="45.54647" lon="2.83231">
        <ele>1652</ele>
        <time>2021-10-29T22:30:43+02:00</time>
      </trkpt>
      <trkpt lat="45.54656" lon="2.83212">
        <ele>1651</ele>
        <time>2021-10-29T22:30:48+02:00</time>
      </trkpt>
      <trkpt lat="45.54672" lon="2.83198">
        <ele>1652</ele>
        <time>2021-10-29T22:30:53+02:00</time>
      </trkpt>
      <trkpt lat="45.54687" lon="2.83195">
        <ele>1657</ele>
        <time>2021-10-29T22:30:58+02:00</time>
      </trkpt>
      <trkpt lat="45.54703" lon="2.83203">
        <ele>1663</ele>
        <time>2021-10-29T22:31:03+02:00</time>
      </trkpt>
      <trkpt lat="45.54712" lon="2.83198">
        <ele>1666</ele>
        <time>2021-10-29T22:31:08+02:00</time>
      </trkpt>
      <trkpt lat="45.54721" lon="2.83197">
        <ele>1668</ele>
        <time>2021-10-29T22:31:13+02:00</time>
      </trkpt>
      <trkpt lat="45.54767" lon="2.83188">
        <ele>1682</ele>
        <time>2021-10-29T22:31:18+02:00</time>
      </trkpt>
      <trkpt lat="45.54787" lon="2.83171">
        <ele>1687</ele>
        <time>2021-10-29T22:31:23+02:00</time>
      </trkpt>
      <trkpt lat="45.54805" lon="2.83163">
        <ele>1690</ele>
        <time>2021-10-29T22:31:28+02:00</time>
      </trkpt>
      <trkpt lat="45.5482" lon="2.83147">
        <ele>1690</ele>
        <time>2021-10-29T22:31:33+02:00</time>
      </trkpt>
      <trkpt lat="45.54849" lon="2.83137">
        <ele>1694</ele>
        <time>2021-10-29T22:31:38+02:00</time>
      </trkpt>
      <trkpt lat="45.54895" lon="2.83113">
        <ele>1702</ele>
        <time>2021-10-29T22:31:43+02:00</time>
      </trkpt>
      <trkpt lat="45.54918" lon="2.831">
        <ele>1709</ele>
        <time>2021-10-29T22:31:48+02:00</time>
      </trkpt>
      <trkpt lat="45.54934" lon="2.83064">
        <ele>1707</ele>
        <time>2021-10-29T22:31:53+02:00</time>
      </trkpt>
      <trkpt lat="45.54943" lon="2.83044">
        <ele>1704</ele>
        <time>2021-10-29T22:31:58+02:00</time>
      </trkpt>
      <trkpt lat="45.54954" lon="2.83054">
        <ele>1705</ele>
        <time>2021-10-29T22:32:03+02:00</time>
      </trkpt>
      <trkpt lat="45.5494" lon="2.83095">
        <ele>1706</ele>
        <time>2021-10-29T22:32:08+02:00</time>
      </trkpt>
      <trkpt lat="45.54919" lon="2.83138">
        <ele>1703</ele>
        <time>2021-10-29T22:32:13+02:00</time>
      </trkpt>
      <trkpt lat="45.54939" lon="2.83145">
        <ele>1700</ele>
        <time>2021-10-29T22:32:18+02:00</time>
      </trkpt>
      <trkpt lat="45.54965" lon="2.83147">
        <ele>1696</ele>
        <time>2021-10-29T22:32:23+02:00</time>
      </trkpt>
      <trkpt lat="45.54985" lon="2.83141">
        <ele>1694</ele>
        <time>2021-10-29T22:32:28+02:00</time>
      </trkpt>
      <trkpt lat="45.55004" lon="2.83129">
        <ele>1692</ele>
        <time>2021-10-29T22:32:33+02:00</time>
      </trkpt>
      <trkpt lat="45.55015" lon="2.83104">
        <ele>1690</ele>
        <time>2021-10-29T22:32:38+02:00</time>
      </trkpt>
      <trkpt lat="45.55029" lon="2.83072">
        <ele>1686</ele>
        <time>2021-10-29T22:32:43+02:00</time>
      </trkpt>
      <trkpt lat="45.55038" lon="2.83057">
        <ele>1681</ele>
        <time>2021-10-29T22:32:48+02:00</time>
      </trkpt>
      <trkpt lat="45.55043" lon="2.83087">
        <ele>1677</ele>
        <time>2021-10-29T22:32:53+02:00</time>
      </trkpt>
      <trkpt lat="45.55048" lon="2.83123">
        <ele>1673</ele>
        <time>2021-10-29T22:32:58+02:00</time>
      </trkpt>
      <trkpt lat="45.55055" lon="2.83183">
        <ele>1665</ele>
        <time>2021-10-29T22:33:03+02:00</time>
      </trkpt>
      <trkpt lat="45.55054" lon="2.83218">
        <ele>1659</ele>
        <time>2021-10-29T22:33:08+02:00</time>
      </trkpt>
      <trkpt lat="45.55049" lon="2.83247">
        <ele>1655</ele>
        <time>2021-10-29T22:33:13+02:00</time>
      </trkpt>
      <trkpt lat="45.55054" lon="2.83259">
        <ele>1651</ele>
        <time>2021-10-29T22:33:18+02:00</time>
      </trkpt>
      <trkpt lat="45.55072" lon="2.83293">
        <ele>1643</ele>
        <time>2021-10-29T22:33:23+02:00</time>
      </trkpt>
      <trkpt lat="45.55087" lon="2.83308">
        <ele>1639</ele>
        <time>2021-10-29T22:33:28+02:00</time>
      </trkpt>
      <trkpt lat="45.55107" lon="2.83226">
        <ele>1644</ele>
        <time>2021-10-29T22:33:33+02:00</time>
      </trkpt>
      <trkpt lat="45.55112" lon="2.83171">
        <ele>1646</ele>
        <time>2021-10-29T22:33:38+02:00</time>
      </trkpt>
      <trkpt lat="45.55112" lon="2.83137">
        <ele>1645</ele>
        <time>2021-10-29T22:33:43+02:00</time>
      </trkpt>
      <trkpt lat="45.55133" lon="2.83057">
        <ele>1637</ele>
        <time>2021-10-29T22:33:48+02:00</time>
      </trkpt>
      <trkpt lat="45.55144" lon="2.82998">
        <ele>1634</ele>
        <time>2021-10-29T22:33:53+02:00</time>
      </trkpt>
      <trkpt lat="45.55155" lon="2.82954">
        <ele>1629</ele>
        <time>2021-10-29T22:33:58+02:00</time>
      </trkpt>
      <trkpt lat="45.55179" lon="2.8287">
        <ele>1618</ele>
        <time>2021-10-29T22:34:03+02:00</time>
      </trkpt>
      <trkpt lat="45.55187" lon="2.82819">
        <ele>1615</ele>
        <time>2021-10-29T22:34:08+02:00</time>
      </trkpt>
      <trkpt lat="45.55194" lon="2.82778">
        <ele>1613</ele>
        <time>2021-10-29T22:34:13+02:00</time>
      </trkpt>
      <trkpt lat="45.55204" lon="2.82747">
        <ele>1608</ele>
        <time>2021-10-29T22:34:18+02:00</time>
      </trkpt>
      <trkpt lat="45.55206" lon="2.82713">
        <ele>1605</ele>
        <time>2021-10-29T22:34:23+02:00</time>
      </trkpt>
      <trkpt lat="45.55211" lon="2.82686">
        <ele>1601</ele>
        <time>2021-10-29T22:34:28+02:00</time>
      </trkpt>
      <trkpt lat="45.55213" lon="2.82665">
        <ele>1598</ele>
        <time>2021-10-29T22:34:33+02:00</time>
      </trkpt>
      <trkpt lat="45.55215" lon="2.82647">
        <ele>1593</ele>
        <time>2021-10-29T22:34:38+02:00</time>
      </trkpt>
      <trkpt lat="45.55218" lon="2.82637">
        <ele>1590</ele>
        <time>2021-10-29T22:34:43+02:00</time>
      </trkpt>
      <trkpt lat="45.55223" lon="2.82632">
        <ele>1588</ele>
        <time>2021-10-29T22:34:48+02:00</time>
      </trkpt>
      <trkpt lat="45.55238" lon="2.82621">
        <ele>1583</ele>
        <time>2021-10-29T22:34:53+02:00</time>
      </trkpt>
      <trkpt lat="45.55254" lon="2.82609">
        <ele>1578</ele>
        <time>2021-10-29T22:34:58+02:00</time>
      </trkpt>
      <trkpt lat="45.55268" lon="2.82601">
        <ele>1574</ele>
        <time>2021-10-29T22:35:03+02:00</time>
      </trkpt>
      <trkpt lat="45.5532" lon="2.82566">
        <ele>1556</ele>
        <time>2021-10-29T22:35:08+02:00</time>
      </trkpt>
      <trkpt lat="45.55345" lon="2.82556">
        <ele>1550</ele>
        <time>2021-10-29T22:35:13+02:00</time>
      </trkpt>
      <trkpt lat="45.55385" lon="2.82552">
        <ele>1545</ele>
        <time>2021-10-29T22:35:18+02:00</time>
      </trkpt>
      <trkpt lat="45.5542" lon="2.82531">
        <ele>1536</ele>
        <time>2021-10-29T22:35:23+02:00</time>
      </trkpt>
      <trkpt lat="45.55449" lon="2.82502">
        <ele>1529</ele>
        <time>2021-10-29T22:35:28+02:00</time>
      </trkpt>
      <trkpt lat="45.55471" lon="2.82488">
        <ele>1523</ele>
        <time>2021-10-29T22:35:33+02:00</time>
      </trkpt>
      <trkpt lat="45.55496" lon="2.8248">
        <ele>1520</ele>
        <time>2021-10-29T22:35:38+02:00</time>
      </trkpt>
      <trkpt lat="45.55519" lon="2.8247">
        <ele>1516</ele>
        <time>2021-10-29T22:35:43+02:00</time>
      </trkpt>
      <trkpt lat="45.55539" lon="2.82458">
        <ele>1512</ele>
        <time>2021-10-29T22:35:48+02:00</time>
      </trkpt>
      <trkpt lat="45.5555" lon="2.82452">
        <ele>1510</ele>
        <time>2021-10-29T22:35:53+02:00</time>
      </trkpt>
      <trkpt lat="45.55568" lon="2.82438">
        <ele>1507</ele>
        <time>2021-10-29T22:35:58+02:00</time>
      </trkpt>
      <trkpt lat="45.55577" lon="2.82432">
        <ele>1507</ele>
        <time>2021-10-29T22:36:03+02:00</time>
      </trkpt>
      <trkpt lat="45.55588" lon="2.82425">
        <ele>1505</ele>
        <time>2021-10-29T22:36:08+02:00</time>
      </trkpt>
      <trkpt lat="45.55602" lon="2.8242">
        <ele>1503</ele>
        <time>2021-10-29T22:36:13+02:00</time>
      </trkpt>
      <trkpt lat="45.55614" lon="2.82412">
        <ele>1499</ele>
        <time>2021-10-29T22:36:18+02:00</time>
      </trkpt>
      <trkpt lat="45.55629" lon="2.82399">
        <ele>1494</ele>
        <time>2021-10-29T22:36:23+02:00</time>
      </trkpt>
      <trkpt lat="45.55639" lon="2.82388">
        <ele>1490</ele>
        <time>2021-10-29T22:36:28+02:00</time>
      </trkpt>
      <trkpt lat="45.55651" lon="2.8238">
        <ele>1486</ele>
        <time>2021-10-29T22:36:33+02:00</time>
      </trkpt>
      <trkpt lat="45.55666" lon="2.82372">
        <ele>1484</ele>
        <time>2021-10-29T22:36:38+02:00</time>
      </trkpt>
      <trkpt lat="45.55676" lon="2.82364">
        <ele>1481</ele>
        <time>2021-10-29T22:36:43+02:00</time>
      </trkpt>
      <trkpt lat="45.55683" lon="2.82355">
        <ele>1479</ele>
        <time>2021-10-29T22:36:48+02:00</time>
      </trkpt>
      <trkpt lat="45.55698" lon="2.82351">
        <ele>1478</ele>
        <time>2021-10-29T22:36:53+02:00</time>
      </trkpt>
      <trkpt lat="45.55715" lon="2.82352">
        <ele>1477</ele>
        <time>2021-10-29T22:36:58+02:00</time>
      </trkpt>
      <trkpt lat="45.55727" lon="2.8235">
        <ele>1476</ele>
        <time>2021-10-29T22:37:03+02:00</time>
      </trkpt>
      <trkpt lat="45.55736" lon="2.82343">
        <ele>1475</ele>
        <time>2021-10-29T22:37:08+02:00</time>
      </trkpt>
      <trkpt lat="45.55751" lon="2.82334">
        <ele>1473</ele>
        <time>2021-10-29T22:37:13+02:00</time>
      </trkpt>
      <trkpt lat="45.55763" lon="2.8233">
        <ele>1472</ele>
        <time>2021-10-29T22:37:18+02:00</time>
      </trkpt>
      <trkpt lat="45.55783" lon="2.82317">
        <ele>1467</ele>
        <time>2021-10-29T22:37:23+02:00</time>
      </trkpt>
      <trkpt lat="45.55815" lon="2.82302">
        <ele>1462</ele>
        <time>2021-10-29T22:37:28+02:00</time>
      </trkpt>
      <trkpt lat="45.55849" lon="2.82288">
        <ele>1456</ele>
        <time>2021-10-29T22:37:33+02:00</time>
      </trkpt>
      <trkpt lat="45.55869" lon="2.8228">
        <ele>1452</ele>
        <time>2021-10-29T22:37:38+02:00</time>
      </trkpt>
      <trkpt lat="45.55881" lon="2.82274">
        <ele>1450</ele>
        <time>2021-10-29T22:37:43+02:00</time>
      </trkpt>
      <trkpt lat="45.55903" lon="2.82269">
        <ele>1448</ele>
        <time>2021-10-29T22:37:48+02:00</time>
      </trkpt>
      <trkpt lat="45.55924" lon="2.82263">
        <ele>1446</ele>
        <time>2021-10-29T22:37:53+02:00</time>
      </trkpt>
      <trkpt lat="45.55951" lon="2.82252">
        <ele>1445</ele>
        <time>2021-10-29T22:37:58+02:00</time>
      </trkpt>
      <trkpt lat="45.5597" lon="2.82238">
        <ele>1441</ele>
        <time>2021-10-29T22:38:03+02:00</time>
      </trkpt>
      <trkpt lat="45.55993" lon="2.82224">
        <ele>1438</ele>
        <time>2021-10-29T22:38:08+02:00</time>
      </trkpt>
      <trkpt lat="45.56005" lon="2.8221">
        <ele>1434</ele>
        <time>2021-10-29T22:38:13+02:00</time>
      </trkpt>
      <trkpt lat="45.56023" lon="2.822">
        <ele>1431</ele>
        <time>2021-10-29T22:38:18+02:00</time>
      </trkpt>
      <trkpt lat="45.56054" lon="2.82174">
        <ele>1425</ele>
        <time>2021-10-29T22:38:23+02:00</time>
      </trkpt>
      <trkpt lat="45.56114" lon="2.82103">
        <ele>1409</ele>
        <time>2021-10-29T22:38:28+02:00</time>
      </trkpt>
      <trkpt lat="45.56149" lon="2.82097">
        <ele>1412</ele>
        <time>2021-10-29T22:38:33+02:00</time>
      </trkpt>
      <trkpt lat="45.56171" lon="2.82099">
        <ele>1413</ele>
        <time>2021-10-29T22:38:38+02:00</time>
      </trkpt>
      <trkpt lat="45.56185" lon="2.82082">
        <ele>1409</ele>
        <time>2021-10-29T22:38:43+02:00</time>
      </trkpt>
      <trkpt lat="45.56192" lon="2.82062">
        <ele>1405</ele>
        <time>2021-10-29T22:38:48+02:00</time>
      </trkpt>
      <trkpt lat="45.56207" lon="2.82017">
        <ele>1399</ele>
        <time>2021-10-29T22:38:53+02:00</time>
      </trkpt>
      <trkpt lat="45.56214" lon="2.81982">
        <ele>1392</ele>
        <time>2021-10-29T22:38:58+02:00</time>
      </trkpt>
      <trkpt lat="45.56231" lon="2.81968">
        <ele>1388</ele>
        <time>2021-10-29T22:39:03+02:00</time>
      </trkpt>
      <trkpt lat="45.56241" lon="2.81952">
        <ele>1384</ele>
        <time>2021-10-29T22:39:08+02:00</time>
      </trkpt>
      <trkpt lat="45.56271" lon="2.81931">
        <ele>1378</ele>
        <time>2021-10-29T22:39:13+02:00</time>
      </trkpt>
      <trkpt lat="45.56306" lon="2.81912">
        <ele>1372</ele>
        <time>2021-10-29T22:39:18+02:00</time>
      </trkpt>
      <trkpt lat="45.56325" lon="2.81921">
        <ele>1373</ele>
        <time>2021-10-29T22:39:23+02:00</time>
      </trkpt>
      <trkpt lat="45.56346" lon="2.8192">
        <ele>1370</ele>
        <time>2021-10-29T22:39:28+02:00</time>
      </trkpt>
      <trkpt lat="45.56387" lon="2.819">
        <ele>1359</ele>
        <time>2021-10-29T22:39:33+02:00</time>
      </trkpt>
      <trkpt lat="45.56432" lon="2.81871">
        <ele>1345</ele>
        <time>2021-10-29T22:39:38+02:00</time>
      </trkpt>
      <trkpt lat="45.56453" lon="2.81853">
        <ele>1337</ele>
        <time>2021-10-29T22:39:43+02:00</time>
      </trkpt>
      <trkpt lat="45.56469" lon="2.81849">
        <ele>1334</ele>
        <time>2021-10-29T22:39:48+02:00</time>
      </trkpt>
      <trkpt lat="45.56504" lon="2.8185">
        <ele>1328</ele>
        <time>2021-10-29T22:39:53+02:00</time>
      </trkpt>
      <trkpt lat="45.56542" lon="2.81847">
        <ele>1315</ele>
        <time>2021-10-29T22:39:58+02:00</time>
      </trkpt>
      <trkpt lat="45.56548" lon="2.8186">
        <ele>1315</ele>
        <time>2021-10-29T22:40:03+02:00</time>
      </trkpt>
      <trkpt lat="45.56555" lon="2.81888">
        <ele>1316</ele>
        <time>2021-10-29T22:40:08+02:00</time>
      </trkpt>
      <trkpt lat="45.56561" lon="2.81919">
        <ele>1319</ele>
        <time>2021-10-29T22:40:13+02:00</time>
      </trkpt>
      <trkpt lat="45.56559" lon="2.81942">
        <ele>1323</ele>
        <time>2021-10-29T22:40:18+02:00</time>
      </trkpt>
      <trkpt lat="45.56569" lon="2.81951">
        <ele>1321</ele>
        <time>2021-10-29T22:40:23+02:00</time>
      </trkpt>
      <trkpt lat="45.56572" lon="2.81922">
        <ele>1315</ele>
        <time>2021-10-29T22:40:28+02:00</time>
      </trkpt>
      <trkpt lat="45.56578" lon="2.81919">
        <ele>1312</ele>
        <time>2021-10-29T22:40:33+02:00</time>
      </trkpt>
      <trkpt lat="45.56594" lon="2.8194">
        <ele>1310</ele>
        <time>2021-10-29T22:40:38+02:00</time>
      </trkpt>
      <trkpt lat="45.56601" lon="2.81955">
        <ele>1311</ele>
        <time>2021-10-29T22:40:43+02:00</time>
      </trkpt>
      <trkpt lat="45.56615" lon="2.81966">
        <ele>1310</ele>
        <time>2021-10-29T22:40:48+02:00</time>
      </trkpt>
      <trkpt lat="45.56625" lon="2.81969">
        <ele>1307</ele>
        <time>2021-10-29T22:40:53+02:00</time>
      </trkpt>
      <trkpt lat="45.56635" lon="2.81987">
        <ele>1311</ele>
        <time>2021-10-29T22:40:58+02:00</time>
      </trkpt>
      <trkpt lat="45.5665" lon="2.81997">
        <ele>1312</ele>
        <time>2021-10-29T22:41:03+02:00</time>
      </trkpt>
      <trkpt lat="45.56664" lon="2.81985">
        <ele>1303</ele>
        <time>2021-10-29T22:41:08+02:00</time>
      </trkpt>
      <trkpt lat="45.56679" lon="2.8197">
        <ele>1298</ele>
        <time>2021-10-29T22:41:13+02:00</time>
      </trkpt>
      <trkpt lat="45.56698" lon="2.81939">
        <ele>1285</ele>
        <time>2021-10-29T22:41:18+02:00</time>
      </trkpt>
      <trkpt lat="45.5673" lon="2.81917">
        <ele>1278</ele>
        <time>2021-10-29T22:41:23+02:00</time>
      </trkpt>
      <trkpt lat="45.5675" lon="2.81894">
        <ele>1270</ele>
        <time>2021-10-29T22:41:28+02:00</time>
      </trkpt>
      <trkpt lat="45.56753" lon="2.8188">
        <ele>1263</ele>
        <time>2021-10-29T22:41:33+02:00</time>
      </trkpt>
      <trkpt lat="45.56767" lon="2.8186">
        <ele>1258</ele>
        <time>2021-10-29T22:41:38+02:00</time>
      </trkpt>
      <trkpt lat="45.56775" lon="2.81839">
        <ele>1250</ele>
        <time>2021-10-29T22:41:43+02:00</time>
      </trkpt>
      <trkpt lat="45.56768" lon="2.81835">
        <ele>1246</ele>
        <time>2021-10-29T22:41:48+02:00</time>
      </trkpt>
      <trkpt lat="45.56744" lon="2.8186">
        <ele>1253</ele>
        <time>2021-10-29T22:41:53+02:00</time>
      </trkpt>
      <trkpt lat="45.56723" lon="2.81881">
        <ele>1262</ele>
        <time>2021-10-29T22:41:58+02:00</time>
      </trkpt>
      <trkpt lat="45.56701" lon="2.8188">
        <ele>1260</ele>
        <time>2021-10-29T22:42:03+02:00</time>
      </trkpt>
      <trkpt lat="45.56718" lon="2.81858">
        <ele>1252</ele>
        <time>2021-10-29T22:42:08+02:00</time>
      </trkpt>
      <trkpt lat="45.56712" lon="2.81856">
        <ele>1252</ele>
        <time>2021-10-29T22:42:13+02:00</time>
      </trkpt>
      <trkpt lat="45.56719" lon="2.81842">
        <ele>1246</ele>
        <time>2021-10-29T22:42:18+02:00</time>
      </trkpt>
      <trkpt lat="45.567" lon="2.81845">
        <ele>1248</ele>
        <time>2021-10-29T22:42:23+02:00</time>
      </trkpt>
      <trkpt lat="45.56711" lon="2.81828">
        <ele>1242</ele>
        <time>2021-10-29T22:42:28+02:00</time>
      </trkpt>
      <trkpt lat="45.56714" lon="2.81822">
        <ele>1239</ele>
        <time>2021-10-29T22:42:33+02:00</time>
      </trkpt>
      <trkpt lat="45.56718" lon="2.81815">
        <ele>1236</ele>
        <time>2021-10-29T22:42:38+02:00</time>
      </trkpt>
      <trkpt lat="45.56734" lon="2.81808">
        <ele>1230</ele>
        <time>2021-10-29T22:42:43+02:00</time>
      </trkpt>
      <trkpt lat="45.56742" lon="2.81792">
        <ele>1222</ele>
        <time>2021-10-29T22:42:48+02:00</time>
      </trkpt>
      <trkpt lat="45.56765" lon="2.81771">
        <ele>1215</ele>
        <time>2021-10-29T22:42:53+02:00</time>
      </trkpt>
      <trkpt lat="45.56783" lon="2.81723">
        <ele>1201</ele>
        <time>2021-10-29T22:42:58+02:00</time>
      </trkpt>
      <trkpt lat="45.5681" lon="2.81709">
        <ele>1203</ele>
        <time>2021-10-29T22:43:03+02:00</time>
      </trkpt>
      <trkpt lat="45.56815" lon="2.81682">
        <ele>1193</ele>
        <time>2021-10-29T22:43:08+02:00</time>
      </trkpt>
      <trkpt lat="45.56845" lon="2.81648">
        <ele>1181</ele>
        <time>2021-10-29T22:43:13+02:00</time>
      </trkpt>
      <trkpt lat="45.56862" lon="2.81625">
        <ele>1173</ele>
        <time>2021-10-29T22:43:18+02:00</time>
      </trkpt>
      <trkpt lat="45.56893" lon="2.81567">
        <ele>1152</ele>
        <time>2021-10-29T22:43:23+02:00</time>
      </trkpt>
      <trkpt lat="45.56918" lon="2.81572">
        <ele>1159</ele>
        <time>2021-10-29T22:43:28+02:00</time>
      </trkpt>
      <trkpt lat="45.56969" lon="2.81547">
        <ele>1156</ele>
        <time>2021-10-29T22:43:33+02:00</time>
      </trkpt>
      <trkpt lat="45.56985" lon="2.8153">
        <ele>1149</ele>
        <time>2021-10-29T22:43:38+02:00</time>
      </trkpt>
      <trkpt lat="45.57011" lon="2.81517">
        <ele>1146</ele>
        <time>2021-10-29T22:43:43+02:00</time>
      </trkpt>
      <trkpt lat="45.56998" lon="2.8151">
        <ele>1140</ele>
        <time>2021-10-29T22:43:48+02:00</time>
      </trkpt>
      <trkpt lat="45.56978" lon="2.81511">
        <ele>1138</ele>
        <time>2021-10-29T22:43:53+02:00</time>
      </trkpt>
      <trkpt lat="45.56958" lon="2.81514">
        <ele>1138</ele>
        <time>2021-10-29T22:43:58+02:00</time>
      </trkpt>
      <trkpt lat="45.56913" lon="2.81497">
        <ele>1125</ele>
        <time>2021-10-29T22:44:03+02:00</time>
      </trkpt>
      <trkpt lat="45.56906" lon="2.81484">
        <ele>1120</ele>
        <time>2021-10-29T22:44:08+02:00</time>
      </trkpt>
      <trkpt lat="45.5694" lon="2.81483">
        <ele>1123</ele>
        <time>2021-10-29T22:44:13+02:00</time>
      </trkpt>
      <trkpt lat="45.56957" lon="2.81479">
        <ele>1123</ele>
        <time>2021-10-29T22:44:18+02:00</time>
      </trkpt>
      <trkpt lat="45.56983" lon="2.8147">
        <ele>1122</ele>
        <time>2021-10-29T22:44:23+02:00</time>
      </trkpt>
      <trkpt lat="45.5701" lon="2.81462">
        <ele>1122</ele>
        <time>2021-10-29T22:44:28+02:00</time>
      </trkpt>
      <trkpt lat="45.5707" lon="2.81434">
        <ele>1119</ele>
        <time>2021-10-29T22:44:33+02:00</time>
      </trkpt>
      <trkpt lat="45.57103" lon="2.81407">
        <ele>1113</ele>
        <time>2021-10-29T22:44:38+02:00</time>
      </trkpt>
      <trkpt lat="45.5714" lon="2.81393">
        <ele>1113</ele>
        <time>2021-10-29T22:44:43+02:00</time>
      </trkpt>
      <trkpt lat="45.57185" lon="2.81376">
        <ele>1112</ele>
        <time>2021-10-29T22:44:48+02:00</time>
      </trkpt>
      <trkpt lat="45.57212" lon="2.81359">
        <ele>1110</ele>
        <time>2021-10-29T22:44:53+02:00</time>
      </trkpt>
      <trkpt lat="45.57255" lon="2.81341">
        <ele>1110</ele>
        <time>2021-10-29T22:44:58+02:00</time>
      </trkpt>
      <trkpt lat="45.5727" lon="2.8132">
        <ele>1105</ele>
        <time>2021-10-29T22:45:03+02:00</time>
      </trkpt>
      <trkpt lat="45.57241" lon="2.81331">
        <ele>1104</ele>
        <time>2021-10-29T22:45:08+02:00</time>
      </trkpt>
      <trkpt lat="45.5727" lon="2.81305">
        <ele>1100</ele>
        <time>2021-10-29T22:45:13+02:00</time>
      </trkpt>
      <trkpt lat="45.57238" lon="2.81314">
        <ele>1098</ele>
        <time>2021-10-29T22:45:18+02:00</time>
      </trkpt>
      <trkpt lat="45.57265" lon="2.81286">
        <ele>1092</ele>
        <time>2021-10-29T22:45:23+02:00</time>
      </trkpt>
      <trkpt lat="45.57232" lon="2.8129">
        <ele>1088</ele>
        <time>2021-10-29T22:45:28+02:00</time>
      </trkpt>
      <trkpt lat="45.57256" lon="2.81264">
        <ele>1083</ele>
        <time>2021-10-29T22:45:33+02:00</time>
      </trkpt>
      <trkpt lat="45.57223" lon="2.81273">
        <ele>1081</ele>
        <time>2021-10-29T22:45:38+02:00</time>
      </trkpt>
      <trkpt lat="45.57255" lon="2.81234">
        <ele>1074</ele>
        <time>2021-10-29T22:45:43+02:00</time>
      </trkpt>
      <trkpt lat="45.5722" lon="2.81234">
        <ele>1069</ele>
        <time>2021-10-29T22:45:48+02:00</time>
      </trkpt>
      <trkpt lat="45.57238" lon="2.81215">
        <ele>1067</ele>
        <time>2021-10-29T22:45:53+02:00</time>
      </trkpt>
      <trkpt lat="45.57249" lon="2.812">
        <ele>1064</ele>
        <time>2021-10-29T22:45:58+02:00</time>
      </trkpt>
      <trkpt lat="45.57239" lon="2.81161">
        <ele>1056</ele>
        <time>2021-10-29T22:46:03+02:00</time>
      </trkpt>
      <trkpt lat="45.57239" lon="2.81151">
        <ele>1055</ele>
        <time>2021-10-29T22:46:08+02:00</time>
      </trkpt>
      <trkpt lat="45.57211" lon="2.8117">
        <ele>1057</ele>
        <time>2021-10-29T22:46:13+02:00</time>
      </trkpt>
    </trkseg>
  </trk>
</gpx>